logo
Games tagged Noir
# Game Release date
Price
Score rank
(Userscore / Metascore)
Owners
Players
Playtime (Median)
Developer(s)
Publisher(s)
1 Disco Elysium - The Final Cut Oct 15, 2019 $39.99N/A (N/A/97%)2,000,000 .. 5,000,0003.99%02:58 (04:34)ZA/UMZA/UM
2 NORCO Mar 24, 2022 FreeN/A (N/A/89%)200,000 .. 500,0000%00:00 (00:00)Geography of RobotsRaw Fury
3 IMMORTALITY Aug 30, 2022 $9.99N/A (N/A/87%)100,000 .. 200,0000%00:00 (00:00)Sam Barlow, Half MermaidHalf Mermaid
4 Lacuna – A Sci-Fi Noir Adventure May 20, 2021 $15.99N/A (N/A/86%)500,000 .. 1,000,0000%00:00 (00:00)DigiTales InteractiveAssemble Entertainment, WhisperGames, Mayflower Entertainment
5 Thimbleweed Park Mar 30, 2017 $19.99N/A (N/A/84%)200,000 .. 500,0000%00:00 (00:00)Terrible ToyboxTerrible Toybox
6 Katana ZERO Apr 18, 2019 $14.99N/A (N/A/83%)1,000,000 .. 2,000,0000.68%00:05 (00:01)AskiisoftDevolver Digital
7 Subsurface Circular Aug 17, 2017 $4.79N/A (N/A/83%)200,000 .. 500,0000%00:00 (00:00)Bithell GamesBithell Games
8 Blake: The Visual Novel Aug 31, 2021 FreeN/A (N/A/82%)0 .. 20,0000%00:00 (00:00)Ori MeesLegendOri Productions
9 Chicken Police - Paint it RED! Nov 5, 2020 FreeN/A (N/A/82%)100,000 .. 200,0000%00:00 (00:00)The Wild GentlemenHandyGames
10 L.A. Noire: The VR Case Files Dec 15, 2017 $29.99N/A (N/A/82%)50,000 .. 100,0000%00:00 (00:00)Rockstar GamesRockstar Games
11 Gunbrella Sep 13, 2023 $14.99N/A (N/A/81%)20,000 .. 50,0000%00:00 (00:00)doinksoftDevolver Digital
12 OTXO Apr 20, 2023 $14.99N/A (N/A/81%)100,000 .. 200,0000%00:00 (00:00)Lateralis Heavy IndustriesSuper Rare Originals
13 Rough Justice: '84 Mar 13, 2023 $6.99N/A (N/A/78%)50,000 .. 100,0000%00:00 (00:00)Gamma MinusDaedalic Entertainment
14 Hell is Others Oct 20, 2022 $14.99N/A (N/A/78%)500,000 .. 1,000,0000%00:00 (00:00)Strelka Games, YonderA List Games
15 Nine Noir Lives Sep 7, 2022 $19.99N/A (N/A/78%)0 .. 20,0000%00:00 (00:00)Silvernode GamesSilvernode Games
16 Freud's Bones-the game May 25, 2022 $10.99N/A (N/A/77%)50,000 .. 100,0000%00:00 (00:00)Axel Fox (Fortuna Imperatore)Axel Fox (Fortuna Imperatore)
17 Genesis Noir Mar 26, 2021 $4.49N/A (N/A/77%)200,000 .. 500,0000%00:00 (00:00)Feral Cat DenFellow Traveller
18 Whispers of a Machine Apr 17, 2019 $14.99N/A (N/A/77%)200,000 .. 500,0000%00:00 (00:00)Clifftop Games, Faravid InteractiveRaw Fury
19 A Case of Distrust Feb 8, 2018 $14.99N/A (N/A/77%)50,000 .. 100,0000%00:00 (00:00)The Wandering BenThe Wandering Ben
20 Lucifer Within Us Oct 15, 2020 $19.99N/A (N/A/76%)100,000 .. 200,0000%00:00 (00:00)Kitfox GamesKitfox Games
21 Neo Cab Oct 3, 2019 $14.99N/A (N/A/76%)200,000 .. 500,0000%00:00 (00:00)Chance AgencyFellow Traveller
22 Detective Gallo May 30, 2018 $14.99N/A (N/A/76%)100,000 .. 200,0000%00:00 (00:00)Footprints GamesFootprints Games
23 Loretta Feb 16, 2023 $14.99N/A (N/A/75%)50,000 .. 100,0000%00:00 (00:00)Yakov ButuzoffDANGEN Entertainment
24 Quarantine Circular May 22, 2018 $4.79N/A (N/A/73%)100,000 .. 200,0000%00:00 (00:00)Bithell GamesBithell Games
25 Pato Box Mar 15, 2018 $9.99N/A (N/A/73%)0 .. 20,0000%00:00 (00:00)Bromio, 2think design studioBromio
26 Gamedec - Definitive Edition Sep 16, 2021 $29.99N/A (N/A/72%)100,000 .. 200,0000%00:00 (00:00)Anshar StudiosAnshar Publishing
27 All Walls Must Fall - A Tech-Noir Tactics Game Feb 23, 2018 FreeN/A (N/A/72%)100,000 .. 200,0000%00:00 (00:00)inbetweengamesinbetweengames
28 Fashion Police Squad Aug 15, 2022 $19.99N/A (N/A/71%)20,000 .. 50,0000%00:00 (00:00)Mopeful GamesNo More Robots
29 Metamorphosis Aug 12, 2020 $24.99N/A (N/A/69%)0 .. 20,0000%00:00 (00:00)Ovid WorksUntold Tales
30 The Shrouded Isle Aug 4, 2017 $12.99N/A (N/A/69%)200,000 .. 500,0000%00:00 (00:00)Jongwoo Kim, Erica Lahaie, FX Bilodeau, Tanya ShortKitfox Games
31 The Plane Effect Sep 23, 2021 $14.99N/A (N/A/68%)20,000 .. 50,0000%00:00 (00:00)Innovina/StudioKikuPQube
32 Pecaminosa May 27, 2021 $9.99N/A (N/A/68%)0 .. 20,0000%00:00 (00:00)Cereal Games2Awesome Studio
33 Chinatown Detective Agency Apr 7, 2022 $24.99N/A (N/A/66%)0 .. 20,0000%00:00 (00:00)General Interactive Co.Humble Games, WhisperGames
34 This Is the Police 2 Jul 31, 2018 $14.99N/A (N/A/66%)500,000 .. 1,000,0000%00:00 (00:00)Weappy StudioTHQ Nordic
35 The Franz Kafka Videogame Apr 6, 2017 $1.04N/A (N/A/64%)100,000 .. 200,0000%00:00 (00:00)Denis Galanin (mif2000)Daedalic Entertainment
36 This is the Zodiac Speaking Oct 15, 2020 $0.77N/A (N/A/59%)20,000 .. 50,0000%00:00 (00:00)Punch Punk GamesKlabater
37 Lovecraft's Untold Stories 2 Sep 13, 2022 $19.99N/A (N/A/56%)20,000 .. 50,0000%00:00 (00:00)LLC Blini GamesFulqrum Publishing
38 圣歌德嘉的晚钟 Dec 4, 2021 FreeN/A (N/A)100,000 .. 200,0000%00:00 (00:00)二律背反旅人计划
39 Escape the Underground Mar 15, 2021 FreeN/A (N/A)20,000 .. 50,0000%00:00 (00:00)Joseph EnglishSleepy Vampire Games
40 Three of Cards Mar 4, 2021 FreeN/A (N/A)50,000 .. 100,0000%00:00 (00:00)Sparky StudiosSparky Studios, Sejong Univ. PandoraCube
41 GET OUT! Mar 2, 2021 FreeN/A (N/A)100,000 .. 200,0000%00:00 (00:00)MilpitiansMilpitians
42 Wild Dose: First Session Mar 1, 2021 FreeN/A (N/A)100,000 .. 200,0000%00:00 (00:00)Lappi SoftLappi Soft
43 Video Realms Feb 14, 2021 FreeN/A (N/A)20,000 .. 50,0000%00:00 (00:00)Allen CaneZenrok Studios
44 Word Game: Episode 0 Jan 14, 2021 FreeN/A (N/A)200,000 .. 500,0000%00:00 (00:00)Team9Team9
45 Ring of Fire: Prologue Dec 15, 2020 FreeN/A (N/A)1,000,000 .. 2,000,0000%00:00 (00:00)de Fault, ChardFar Few Giants
46 These Nights Alone Dec 5, 2020 FreeN/A (N/A)50,000 .. 100,0000%00:00 (00:00)ryArtryArt
47 Nevermore - Documentary Kinetic Novel Nov 30, 2020 N/AN/A (N/A)50,000 .. 100,0000%00:00 (00:00)Nikita Kaf Jam ProductionsNikita Kaf Jam Publishing
48 911 Emergency Manager Nov 20, 2020 N/AN/A (N/A)20,000 .. 50,0000%00:00 (00:00)GoodZeit UGGoodZeit UG
49 Chesnakisnak Oct 19, 2020 FreeN/A (N/A)20,000 .. 50,0000%00:00 (00:00)SchirwindtSchirwindt
50 Chinatown Detective Agency: Day One Oct 2, 2020 N/AN/A (N/A)0 .. 20,0000%00:00 (00:00)General Interactive Co.General Interactive Co., WhisperGames
51 Jack Hayes: The Lazarus Sign Sep 8, 2020 FreeN/A (N/A)20,000 .. 50,0000%00:00 (00:00)Stefan OrtelbachIphigenia Games
52 Lockheart Indigo Jul 31, 2020 FreeN/A (N/A)50,000 .. 100,0000%00:00 (00:00)FangsoftFangsoft
53 Liberated: Free Trial Jul 23, 2020 FreeN/A (N/A)200,000 .. 500,0000%00:00 (00:00)Atomic Wolf, L.INCWalkabout
54 Twin-Turbo Supercharged Nitro-Fueled Papamobile Jul 17, 2020 FreeN/A (N/A)200,000 .. 500,0000%00:00 (00:00)MicrotaurMicrotaur
55 Cyber Ops Prologue May 9, 2020 FreeN/A (N/A)0 .. 20,0000%00:00 (00:00)Octeto StudiosGames Operators
56 Flaming Friday Night Mar 13, 2020 N/AN/A (N/A)0 .. 20,0000%00:00 (00:00)HiderumStudiosHiderumStudios
57 O Rei Oct 25, 2019 FreeN/A (N/A)20,000 .. 50,0000%00:00 (00:00)Hagane, Lord ErinHagane
58 Interactive Horror Stories Oct 25, 2019 FreeN/A (N/A)50,000 .. 100,0000%00:00 (00:00)Aslan Game StudioAslan Game Studio
59 The Poisoner Aug 1, 2019 N/AN/A (N/A)0 .. 20,0000%00:00 (00:00)PlatformaVRPlatformaVR
60 Metaphobia Jun 20, 2019 FreeN/A (N/A)50,000 .. 100,0000%00:00 (00:00)Digital Mosaic GamesDigital Mosaic Games
61 Backbone: Prologue Apr 24, 2019 FreeN/A (N/A)200,000 .. 500,0000%00:00 (00:00)EggNutRaw Fury
62 The Walsingham Files - Chapter 1 Mar 25, 2019 FreeN/A (N/A)50,000 .. 100,0000%00:00 (00:00)Sapphire Dragon ProductionsSapphire Dragon Productions
63 HellCat Jun 15, 2018 FreeN/A (N/A)20,000 .. 50,0000%00:00 (00:00)Verbal ChambersVerbal Chambers
64 Bear With Me - Collector's Edition Feb 8, 2018 $47.94N/A (N/A)20,000 .. 50,0000%00:00 (00:00)Exordium GamesMiyagi Games
65 The Monster Inside Aug 1, 2017 FreeN/A (N/A)100,000 .. 200,0000%00:00 (00:00)Random Seed GamesRandom Seed Games
66 BUCK: Saturday Morning Cartoon Apocalypse Mar 17, 2017 N/AN/A (N/A)0 .. 20,0000%00:00 (00:00)Wave InteractiveWave Interactive
67 Bear With Me - Episode One Aug 8, 2016 FreeN/A (N/A)100,000 .. 200,0000%00:00 (00:00)Exordium GamesMiyagi Games
68 Nihiland Jul 5, 2024 $0.59N/A (N/A)50,000 .. 100,0000%00:00 (00:00)Cassandra WangCassandra Wang
69 Comrades, We Have a Mole Problem Jul 3, 2024 $3.99N/A (N/A)0 .. 20,0000%00:00 (00:00)Gladpark inc.Gladpark inc.
70 Drinks Down Under Jul 1, 2024 $4.99N/A (N/A)0 .. 20,0000%00:00 (00:00)Lucerna FrameworksLucerna Frameworks
71 City Rickshaw Transporter Jun 29, 2024 $29.99N/A (N/A)0 .. 20,0000%00:00 (00:00)MORAT GAMESMORAT GAMES
72 Dystopika Jun 21, 2024 $6.99N/A (N/A)50,000 .. 100,00050%00:07 (00:05)Voids WithinVoids Within, UNIKAT Label
73 Nightrunner Jun 18, 2024 $0.99N/A (N/A)20,000 .. 50,0000%00:00 (00:00)Planetary GearsPlanetary Gears
74 Just a Lullaby Jun 14, 2024 $13.92N/A (N/A)0 .. 20,0000%00:00 (00:00)Maze Well LabMaze Well Lab
75 Fallen Aces Jun 14, 2024 $12.99N/A (N/A)50,000 .. 100,00037.5%02:26 (02:25)Trey Powell, Jason BondNew Blood Interactive
76 SMILE SIMULATION Jun 13, 2024 $6.99N/A (N/A)20,000 .. 50,0000%00:00 (00:00)Vidas SalavejusVidas Salavejus
77 ZigZag Drifter Jun 5, 2024 $29.99N/A (N/A)0 .. 20,0000%00:00 (00:00)Hopa Hopa SAHopa Hopa SA
78 Aberration Analyst Jun 5, 2024 $4.99N/A (N/A)0 .. 20,0000%00:00 (00:00)Schmidt WorkshopsSchmidt Workshops
79 Jim's Nightmare: Chapter 1 Jun 4, 2024 $13.99N/A (N/A)0 .. 20,0000%00:00 (00:00)Pumpkiny GamesSky Den Games
80 SKELER BOY May 31, 2024 $7.99N/A (N/A)50,000 .. 100,0000%00:00 (00:00)MANIAC BOY STUDIORatalaika Games S.L.
81 Echoes May 29, 2024 $9.99N/A (N/A)50,000 .. 100,0000%00:00 (00:00)Nova-boxNova-box
82 Maze Endless May 27, 2024 $2.99N/A (N/A)0 .. 20,0000%00:00 (00:00)Hancel.LinHancel.Lin
83 Glitch Daddy May 27, 2024 $7.49N/A (N/A)0 .. 20,0000%00:00 (00:00)Sad Mask PartySad Mask Party
84 Would you sell your soul May 26, 2024 $8.99N/A (N/A)0 .. 20,0000%00:00 (00:00)COMINO Inc.COMINO Inc.
85 The Mournmore Killings May 24, 2024 $1.99N/A (N/A)0 .. 20,0000%00:00 (00:00)Fatih MertFatih Mert
86 Duck Detective: The Secret Salami May 23, 2024 $9.99N/A (N/A)50,000 .. 100,0000%00:00 (00:00)Happy Broccoli GamesHappy Broccoli Games
87 Finding Sparky May 22, 2024 $8.99N/A (N/A)0 .. 20,0000%00:00 (00:00)Sparky StudiosSparky Studios, Sejong Univ. PandoraCube
88 Rasant May 21, 2024 $1.99N/A (N/A)20,000 .. 50,0000%00:00 (00:00)Cledson Lopes Marta de OliveiraCledman Games
89 Passion Eye May 17, 2024 $29.99N/A (N/A)0 .. 20,0000%00:00 (00:00)Circle 2 LabsCircle 2 Grey Label
90 Melo's nightmare May 16, 2024 $3.99N/A (N/A)0 .. 20,0000%00:00 (00:00)MeloMelo
91 CaseCracker2 May 16, 2024 $11.99N/A (N/A)500,000 .. 1,000,00020%00:01 (00:00)BlackRobeNPC Entertainment
92 Just You May 15, 2024 $19.99N/A (N/A)0 .. 20,0000%00:00 (00:00)Crazy DEVsCrazy DEVs
93 Read Only Memories: NEURODIVER May 15, 2024 $14.99N/A (N/A)20,000 .. 50,0000%00:00 (00:00)MidBoss, LLC.Chorus Worldwide Games
94 Goetita: Turn-based City May 13, 2024 $8.99N/A (N/A)0 .. 20,0000%00:00 (00:00)AigoiAOidoi Company
95 Oil Truck Transporter May 6, 2024 $19.99N/A (N/A)0 .. 20,0000%00:00 (00:00)Lilian CRAPLilian CRAP
96 Who's the BOSS May 6, 2024 $9.99N/A (N/A)0 .. 20,0000%00:00 (00:00)TITATITA
97 Karting with Animals May 6, 2024 $9.99N/A (N/A)0 .. 20,0000%00:00 (00:00)Crazy DEVsCrazy DEVs
98 Exodition May 1, 2024 $19.99N/A (N/A)0 .. 20,0000%00:00 (00:00)Fabrice MagdanzBugman
99 Let Bions Be Bygones Apr 30, 2024 $14.99N/A (N/A)50,000 .. 100,0000%00:00 (00:00)Bohemian PulpMicroprose Software
100 Marcella Moon: Four Are Watching Apr 26, 2024 $9.99N/A (N/A)0 .. 20,0000%00:00 (00:00)Hidden Ocean GamesHidden Ocean Games
101 Staffer Reborn Apr 26, 2024 $2.99N/A (N/A)50,000 .. 100,0000%00:00 (00:00)Team TetrapodTeam Tetrapod
102 What have you done, Father? Apr 25, 2024 $6.99N/A (N/A)0 .. 20,0000%00:00 (00:00)Darkania WorksDarkania Works
103 Central Killing Agency Apr 19, 2024 $0.99N/A (N/A)50,000 .. 100,0000%00:00 (00:00)Moonlight ProductionsMoonlight Productions
104 The Shell Part II: Purgatorio Apr 18, 2024 $24.99N/A (N/A)20,000 .. 50,0000%00:00 (00:00)Innocent GreyShiravune
105 Eclipse: Echo of Dimension Apr 17, 2024 $5.99N/A (N/A)0 .. 20,0000%00:00 (00:00)Lu Jiawei, FROSTI AESTECHFROSTI AESTECH
106 The Elliot Brown Case Apr 15, 2024 $3.99N/A (N/A)20,000 .. 50,0000%00:00 (00:00)Destiny CardRubika Supinfogame
107 Cthulhu's Reach: Devil Reef Apr 14, 2024 $9.99N/A (N/A)0 .. 20,0000%00:00 (00:00)The Fine ArcThe Fine Arc
108 Detective Secrets Solitaire. The Curse of the Village Apr 10, 2024 $6.99N/A (N/A)0 .. 20,0000%00:00 (00:00)DigiMightDigiMight
109 Backflip Apr 5, 2024 $19.99N/A (N/A)0 .. 20,0000%00:00 (00:00)Runip P GamesRunip P Games
110 Criminal Archives: Murder in the Pages Collector's Edition Apr 2, 2024 $13.99N/A (N/A)0 .. 20,0000%00:00 (00:00)Do Games LimitedDo Games Limited
111 CONCRETE VISIONS Apr 2, 2024 $1.99N/A (N/A)0 .. 20,0000%00:00 (00:00)DOSMan GamesVoxPop Games, Inc.
112 Unspoken Apr 1, 2024 $2.99N/A (N/A)0 .. 20,0000%00:00 (00:00)Weeping studioWeeping Studio
113 IRREVERSIBLE Mar 31, 2024 $0.99N/A (N/A)0 .. 20,0000%00:00 (00:00)Viktor MosenkovViktor Mosenkov
114 How Little We Wait Mar 30, 2024 $0.99N/A (N/A)0 .. 20,0000%00:00 (00:00)NoisyNixxTrapped By Static
115 Scarlet Thread Mar 29, 2024 $8.99N/A (N/A)0 .. 20,0000%00:00 (00:00)GeneFreeStudioGeneFreeStudio
116 黑石 Mar 28, 2024 $4.99N/A (N/A)0 .. 20,0000%00:00 (00:00)Salt SeaSalt Sea
117 Verbal Verdict Mar 23, 2024 $9.99N/A (N/A)0 .. 20,0000%00:00 (00:00)Savanna DevelopmentsSavanna Developments
118 Gore Doctor Mar 22, 2024 $16.99N/A (N/A)0 .. 20,0000%00:00 (00:00)Salient GamesSalient Games
119 Largo Mar 21, 2024 $2.99N/A (N/A)0 .. 20,0000%00:00 (00:00)Minus LandscapeMinus Landscape
120 Alone in the Dark Mar 20, 2024 $59.99N/A (N/A)200,000 .. 500,0000%00:00 (00:00)Pieces InteractiveTHQ Nordic
121 Gnosis Mar 15, 2024 $4.99N/A (N/A)50,000 .. 100,0000%00:00 (00:00)So RoSo Ro
122 Ghost Ninja Mar 14, 2024 $14.99N/A (N/A)0 .. 20,0000%00:00 (00:00)Anthony Russo
123 Dream Escape Mar 14, 2024 $5.99N/A (N/A)20,000 .. 50,0000%00:00 (00:00)np_conpanynp_conpany
124 The Order of the Snake Scale Mar 13, 2024 $8.99N/A (N/A)50,000 .. 100,0000%00:00 (00:00)FM Simple Games StudioFM Simple Games Studio, Sons of Welder
125 Scribble Mar 11, 2024 $0.99N/A (N/A)0 .. 20,0000%00:00 (00:00)UnderdogzUnderdogz
126 Hellbreach: Vegas Mar 11, 2024 $14.99N/A (N/A)50,000 .. 100,0000%00:00 (00:00)Infinity Ape StudiosIceberg Interactive
127 Quiet on Set Mar 7, 2024 $12.99N/A (N/A)0 .. 20,0000%00:00 (00:00)Northern Dev StudioLowCountry Games
128 The Saboteur Mar 7, 2024 $9.99N/A (N/A)100,000 .. 200,0000%00:00 (00:00)Pandemic StudiosElectronic Arts
129 Discarnate: Locust Mar 4, 2024 N/AN/A (N/A)0 .. 20,0000%00:00 (00:00)TPSTPS
130 死亡边缘 | Edge of Death Feb 29, 2024 $4.99N/A (N/A)20,000 .. 50,0000%00:00 (00:00)AURORA STUDIOAURORA STUDIO
131 Crowded Mysteries Feb 29, 2024 $3.99N/A (N/A)0 .. 20,0000%00:00 (00:00)Brave GiantSilesia Games
132 Broken Lands Village Feb 27, 2024 $12.99N/A (N/A)0 .. 20,0000%00:00 (00:00)Kielan xDKielan xD
133 KUNKUNKUN Feb 22, 2024 $4.99N/A (N/A)0 .. 20,0000%00:00 (00:00)AURORA STUDIOAURORA STUDIO
134 Mystic Guardians Slide Feb 19, 2024 $0.99N/A (N/A)0 .. 20,0000%00:00 (00:00)Fun Mind GamesFun Mind Games
135 Hope Feb 15, 2024 $2.99N/A (N/A)0 .. 20,0000%00:00 (00:00)HopeHope
136 Soulshard Feb 12, 2024 $1.99N/A (N/A)0 .. 20,0000%00:00 (00:00)Nibb GamesNibb Games
137 Pixel Noir Feb 8, 2024 $24.99N/A (N/A)100,000 .. 200,0000%00:00 (00:00)SWDTech Games
138 Rocococo ~ Audiogame Fantastique Feb 2, 2024 $6.99N/A (N/A)0 .. 20,0000%00:00 (00:00)Speed of Dark StudiosSpeed of Dark Studios
139 Dirge Feb 1, 2024 N/AN/A (N/A)100,000 .. 200,0000%00:00 (00:00)NonNobis GamesNonNobis Games
140 Nexus PI Jan 31, 2024 $6.99N/A (N/A)100,000 .. 200,0000%00:00 (00:00)Lion Sized StudiosLion Sized Studios
141 Chronique des Silencieux Jan 29, 2024 $24.99N/A (N/A)0 .. 20,0000%00:00 (00:00)Pierre Feuille StudioPierre Feuille Studio
142 A Night at the Watermill Jan 26, 2024 $3.99N/A (N/A)50,000 .. 100,0000%00:00 (00:00)Neon TalesNeon Tales
143 REARVIEW MIRROR Jan 25, 2024 $3.99N/A (N/A)0 .. 20,0000%00:00 (00:00)CUBUS GAMES SLCUBUS GAMES SL
144 The Pony Factory Jan 18, 2024 $3.99N/A (N/A)20,000 .. 50,0000%00:00 (00:00)David Szymanski, John SzymanskiDavid Szymanski
145 Retropolis 2: Never Say Goodbye Jan 18, 2024 $24.99N/A (N/A)200,000 .. 500,0000%00:00 (00:00)Peanut ButtonPeanut Button
146 Angel at Dusk Jan 12, 2024 $14.99N/A (N/A)200,000 .. 500,0000%00:00 (00:00)AkiragoyaHenteko Doujin, Sanuk Inc.
147 Mortisomem Jan 12, 2024 $3.99N/A (N/A)0 .. 20,0000%00:00 (00:00)David PatetiDavid Pateti
148 Unveiling Jan 8, 2024 $3.99N/A (N/A)0 .. 20,0000%00:00 (00:00)CHARK StudioCHARK Studio
149 Shadow Vault Jan 6, 2024 $1.99N/A (N/A)100,000 .. 200,0000%00:00 (00:00)Mayhem Studios, ZOOM Platform Media, Jordan Freeman GroupStrategy First
150 Trash Bandits Jan 5, 2024 $14.99N/A (N/A)0 .. 20,0000%00:00 (00:00)Crab Bucket SoftwareCrab Bucket Software
151 T-night Jan 1, 2024 $2.99N/A (N/A)20,000 .. 50,0000%00:00 (00:00)Scream GameScream Game
152 Frozen Friday Night: The Eve Dec 24, 2023 $4.99N/A (N/A)0 .. 20,0000%00:00 (00:00)HiderumStudiosHiderumStudios
153 Lazarus A.D. 2222 Dec 20, 2023 $4.99N/A (N/A)50,000 .. 100,0000%00:00 (00:00)Sons of Welder, FM Simple Games StudioFM Simple Games Studio
154 Stealth Blade Dec 19, 2023 $3.99N/A (N/A)0 .. 20,0000%00:00 (00:00)lc8566games
155 PROJECT;HYPATIOS Dec 12, 2023 $4.99N/A (N/A)0 .. 20,0000%00:00 (00:00)FerryCafeFerryCafe
156 Soul Tolerance: Prologue Dec 11, 2023 $9.99N/A (N/A)50,000 .. 100,0000%00:00 (00:00)Chaosmonger StudioChaosmonger Studio
157 The Great Below Dec 5, 2023 $4.99N/A (N/A)200,000 .. 500,0000%00:00 (00:00)Dobra StudiosByteSize, Kinda Brave
158 Sons of Saturn Nov 30, 2023 $9.99N/A (N/A)0 .. 20,0000%00:00 (00:00)The Saturn StudioThe Saturn Studio
159 水箱 Nov 29, 2023 $1.99N/A (N/A)0 .. 20,0000%00:00 (00:00)Salt SeaSalt Sea
160 Light Up The Sky Nov 20, 2023 $1.99N/A (N/A)0 .. 20,0000%00:00 (00:00)ShortStackStudioShortStackStudio
161 月光下的冒险-Moonlight Adventure Nov 17, 2023 $2.99N/A (N/A)0 .. 20,0000%00:00 (00:00)Rokie Camp StudioHohoyo Games
162 The Kindeman Remedy Nov 16, 2023 $7.99N/A (N/A)50,000 .. 100,0000%00:00 (00:00)Troglobytes Games3D Realms
163 Night Pact: Azuru Nov 15, 2023 $4.99N/A (N/A)0 .. 20,0000%00:00 (00:00)Víctor CórcolesVíctor Córcoles
164 Let 's be a Mouse Nov 13, 2023 $9.99N/A (N/A)0 .. 20,0000%00:00 (00:00)AFabrikAFabrik
165 Ocelot Sunrise Nov 10, 2023 $4.99N/A (N/A)50,000 .. 100,0000%00:00 (00:00)Costa Blanca StudiosTribal-Storm
166 Concealed Nov 8, 2023 $12.99N/A (N/A)20,000 .. 50,0000%00:00 (00:00)CASCHA GAMESNeverland Entertainment
167 Neon Ninja: Pixel Slasher Nov 7, 2023 $4.99N/A (N/A)0 .. 20,0000%00:00 (00:00)HapGamesHapGames
168 空间大作战 Space Operation Nov 6, 2023 $2.99N/A (N/A)0 .. 20,0000%00:00 (00:00)天马工作室天马工作室
169 REQUIEM MEMORY (TRIAL VERSION) Nov 6, 2023 $17.99N/A (N/A)20,000 .. 50,0000%00:00 (00:00)Bunny BerryBunny Berry
170 Absolute color perception Nov 4, 2023 $0.99N/A (N/A)0 .. 20,0000%00:00 (00:00)7miaogame7miaogame
171 One Night: Burlesque Nov 3, 2023 $12.99N/A (N/A)50,000 .. 100,0000%00:00 (00:00)RedDeer.GamesRedDeer.Games
172 Strange House Nov 2, 2023 $2.99N/A (N/A)20,000 .. 50,0000%00:00 (00:00)Games4WondersGames4Wonders
173 One Eleven Nov 2, 2023 $9.99N/A (N/A)0 .. 20,0000%00:00 (00:00)Kitten Purradise StudiosKitten Purradise Studios
174 Words of Yendor Nov 1, 2023 $7.99N/A (N/A)0 .. 20,0000%00:00 (00:00)SandorHQSandorHQ
175 This Bed We Made Nov 1, 2023 $24.99N/A (N/A)50,000 .. 100,0000%00:00 (00:00)Lowbirth GamesLowbirth Games
176 Endoparasitic VR Oct 31, 2023 $19.99N/A (N/A)0 .. 20,0000%00:00 (00:00)Deep Root InteractiveDeep Root Interactive
177 PolyCity Stories - The Affair Oct 28, 2023 $4.99N/A (N/A)50,000 .. 100,0000%00:00 (00:00)Andi LiddellAndi Liddell
178 Honked: a clown noir Oct 27, 2023 $2.99N/A (N/A)20,000 .. 50,0000%00:00 (00:00)Crimp Games, Brieyh'leai, Chris, Nic, Max, Sean, Alana, KarleyCrimp Games
179 Vengeance of Mr. Peppermint Oct 23, 2023 $9.99N/A (N/A)0 .. 20,0000%00:00 (00:00)Hack The Publisherindie.io
180 Good Bones Oct 21, 2023 $14.99N/A (N/A)0 .. 20,0000%00:00 (00:00)RETCON GamesRETCON Games
181 SHAPE HUNTER Oct 20, 2023 $1.5N/A (N/A)0 .. 20,0000%00:00 (00:00)MotiyaGamesMotiyaGames
182 DCOP Oct 20, 2023 $2.99N/A (N/A)50,000 .. 100,0000%00:00 (00:00)Anton Klock, John ErikssonKlockworks, Clairstyler
183 The 7th Guest VR Oct 19, 2023 $29.99N/A (N/A)0 .. 20,0000%00:00 (00:00)Vertigo GamesVertigo Games
184 The Lotus Holidays Oct 18, 2023 $9.99N/A (N/A)0 .. 20,0000%00:00 (00:00)Sad Mask PartyNILWARE
185 Manor of Mysteries Oct 17, 2023 $4.99N/A (N/A)0 .. 20,0000%00:00 (00:00)Ibal DawabshehIbal Dawabsheh
186 THE EDITOR Oct 16, 2023 $11.99N/A (N/A)0 .. 20,0000%00:00 (00:00)DECATREE GAMESDECATREE GAMES
187 Roll me Home Oct 11, 2023 $8.99N/A (N/A)20,000 .. 50,0000%00:00 (00:00)PUMPKIMPUMPKIM
188 Mystery Solitaire. Cthulhu Mythos 3 Oct 9, 2023 $4.99N/A (N/A)0 .. 20,0000%00:00 (00:00)8floor8floor
189 诡雅异俗 Oct 8, 2023 $2.99N/A (N/A)20,000 .. 50,0000%00:00 (00:00)iGame, iYouiGame, iYou
190 GHOST at DAWN Oct 5, 2023 $14.99N/A (N/A)0 .. 20,0000%00:00 (00:00)Blue and Red GamesBlue and Red Games
191 The Lamplighters League Oct 3, 2023 $49.99N/A (N/A)50,000 .. 100,0000%00:00 (00:00)Harebrained SchemesParadox Interactive
192 Unsolved Case: Above the Law Collector's Edition Oct 2, 2023 $9.99N/A (N/A)20,000 .. 50,0000%00:00 (00:00)Do Games LimitedDo Games Limited
193 JJJ Sep 29, 2023 $2.99N/A (N/A)20,000 .. 50,0000%00:00 (00:00)Rotten Apple GamesRotten Apple Games
194 Love In The Dark Sep 28, 2023 $4.99N/A (N/A)0 .. 20,0000%00:00 (00:00)DuoDuoDogDuoDuoDog
195 Death Rabbit Arena Sep 23, 2023 $9.99N/A (N/A)50,000 .. 100,0000%00:00 (00:00)Rabbit StudiosRabbit Studios
196 Light City District Sep 16, 2023 $5N/A (N/A)0 .. 20,0000%00:00 (00:00)GokiburigeemuGokiburigeemu
197 Hauma - A Detective Noir Story Sep 11, 2023 $12.49N/A (N/A)100,000 .. 200,0000%00:00 (00:00)SenAm GamesAssemble Entertainment
198 Neyasnoe Aug 29, 2023 $9.99N/A (N/A)0 .. 20,0000%00:00 (00:00)sad3d, ИЛЬЯМАЗОИЛЬЯМАЗО
199 Brie Parmesan Mysteries Aug 25, 2023 $16.99N/A (N/A)0 .. 20,0000%00:00 (00:00)Rat Pack GamesKibble Game Studios
200 Joy-N Help Me Aug 25, 2023 FreeN/A (N/A)0 .. 20,0000%00:00 (00:00)Little Tiger Athens, Glen UsheLittle Tiger Athens
201 Surreal House Aug 18, 2023 $7.99N/A (N/A)0 .. 20,0000%00:00 (00:00)lukepagcalukepagca
202 Dangeresque: The Roomisode Triungulate Aug 11, 2023 $7.99N/A (N/A)0 .. 20,0000%00:00 (00:00)VidelectrixVidelectrix
203 The Man Came Around Aug 9, 2023 $12.49N/A (N/A)0 .. 20,0000%00:00 (00:00)Pipette IncPipette Inc
204 Single Malt Apocalypse Aug 3, 2023 $2.99N/A (N/A)0 .. 20,0000%00:00 (00:00)wilpuriartswilpuriarts
205 Crossroad of Worlds: Cursed Letters Collector's Edition Aug 2, 2023 $9.99N/A (N/A)0 .. 20,0000%00:00 (00:00)Do Games LimitedDo Games Limited
206 Paranormal Mission Jul 31, 2023 $3.99N/A (N/A)0 .. 20,0000%00:00 (00:00)PlaturoPlaturo
207 Terminal 81 Jul 28, 2023 $4.99N/A (N/A)0 .. 20,0000%00:00 (00:00)David PatetiDavid Pateti
208 Grandma's Legacy VR – The Mystery Puzzle Solving Escape Room Game Jul 27, 2023 $4.99N/A (N/A)0 .. 20,0000%00:00 (00:00)Intelectiva Soluciones Innovadoras SLIntelectiva Soluciones Innovadoras SL
209 The Happy Dismal Town Jul 26, 2023 $2.99N/A (N/A)0 .. 20,0000%00:00 (00:00)Strange Box TalesStrange Box Tales
210 Thematic Solitaire: Noir Jul 25, 2023 $1.99N/A (N/A)0 .. 20,0000%00:00 (00:00)Blue MushroomBlue Mushroom
211 BAD DREAMS Jul 24, 2023 N/AN/A (N/A)50,000 .. 100,0000%00:00 (00:00)CREATIVE VR3DCREATIVE VR3D
212 Carry Onward Jul 21, 2023 $4.99N/A (N/A)0 .. 20,0000%00:00 (00:00)Andrey ChudaevAndrey Chudaev, Nejcraft
213 LOOPER★LOOPER Jul 17, 2023 $4.99N/A (N/A)0 .. 20,0000%00:00 (00:00)IDEA FRUITIONIDEA FRUITION
214 CaveFiction Jul 16, 2023 $5.99N/A (N/A)0 .. 20,0000%00:00 (00:00)jiangli, GooodMonGooodMon
215 Love Shore Jun 30, 2023 $14.99N/A (N/A)50,000 .. 100,0000%00:00 (00:00)Perfect GarbagePerfect Garbage
216 Vaudeville Jun 30, 2023 $19.99N/A (N/A)0 .. 20,0000%00:00 (00:00)Bumblebee StudiosBBS Games AB
217 RUN GUN ZR Jun 29, 2023 $4.99N/A (N/A)20,000 .. 50,0000%00:00 (00:00)Dowrick GamesDowrick Games
218 Panpu-ja Jun 27, 2023 $0.9N/A (N/A)20,000 .. 50,0000%00:00 (00:00)ToastyBeaToastyBea
219 Mystery Solitaire. The Black Raven 5 Jun 23, 2023 $4.99N/A (N/A)0 .. 20,0000%00:00 (00:00)Melon Games8floor
220 The Bookwalker: Thief of Tales Jun 22, 2023 $14.99N/A (N/A)50,000 .. 100,0000%00:00 (00:00)DO MY BESTtinyBuild
221 FINAL GOAL Jun 20, 2023 $0.99N/A (N/A)50,000 .. 100,0000%00:00 (00:00)Gushi GamesGushi Games
222 Don't Stop Jun 13, 2023 $1.99N/A (N/A)0 .. 20,0000%00:00 (00:00)DoomsayerDoomsayer
223 City Legends: The Ghost of Misty Hill Collector's Edition Jun 6, 2023 $6.99N/A (N/A)0 .. 20,0000%00:00 (00:00)Do Games LimitedDo Games Limited
224 Class of '09: The Re-Up Jun 1, 2023 $14.99N/A (N/A)100,000 .. 200,00016.67%05:09 (01:43)SBN3SBN3, Wrath Club
225 Aenas-猫与海:序章(Aenas-Cat and The Sea-Prologue) May 31, 2023 $1.99N/A (N/A)0 .. 20,0000%00:00 (00:00)WinterSweet Cat StudioWinterSweet Cat Studio
226 To Hell With The Ugly May 30, 2023 $19.99N/A (N/A)0 .. 20,0000%00:00 (00:00)La Poule Noire, ARTE FranceARTE France
227 Atom☭grad May 25, 2023 $2.99N/A (N/A)20,000 .. 50,0000%00:00 (00:00)Petter Malmehed, JössesPetter Malmehed
228 Sunshine Shuffle May 24, 2023 $9.99N/A (N/A)20,000 .. 50,0000%00:00 (00:00)Strange ScaffoldStrange Scaffold
229 Landline May 19, 2023 $3.99N/A (N/A)0 .. 20,0000%00:00 (00:00)Jungwoo YomJungwoo Yom
230 My monstrous roommate. (étude) May 9, 2023 $0.99N/A (N/A)50,000 .. 100,0000%00:00 (00:00)SpoocleMacBoogleSpoocleMacBoogle
231 GeraScopia May 5, 2023 $4.99N/A (N/A)0 .. 20,0000%00:00 (00:00)RoebRoeb
232 Penguin Noir May 4, 2023 $4.99N/A (N/A)0 .. 20,0000%00:00 (00:00)Rabid Troll Studios LLCRabid Troll Studios LLC
233 Hong Kong Obscure May 4, 2023 $6.99N/A (N/A)50,000 .. 100,0000%00:00 (00:00)QATSI™ StudiosInsert No Coins
234 Criminal Archives: Alphabetic Murders Collector's Edition May 1, 2023 $6.99N/A (N/A)20,000 .. 50,0000%00:00 (00:00)Do Games LimitedDo Games Limited
235 GunFu Fighter Apr 28, 2023 $0.99N/A (N/A)50,000 .. 100,0000%00:00 (00:00)ZHANG FANZHANG FAN
236 Rest House III - Chlorophilia Apr 28, 2023 $4.99N/A (N/A)20,000 .. 50,0000%00:00 (00:00)Studio Don Quixote, Minotaur productionStudio Don Quixote
237 The Last Case of Benedict Fox Definitive Edition Apr 27, 2023 $24.99N/A (N/A)0 .. 20,0000%00:00 (00:00)Plot TwistPlot Twist
238 Shadows of Doubt Apr 24, 2023 $19.99N/A (N/A)200,000 .. 500,0008.33%04:00 (05:06)ColePowered GamesFireshine Games
239 Labyrinth of Zangetsu Apr 20, 2023 $29.99N/A (N/A)50,000 .. 100,0000%00:00 (00:00)ACQUIRE Corp., KaeruPanda Inc.PQube
240 Sisyphus.12.20.03 Apr 20, 2023 $2.99N/A (N/A)20,000 .. 50,0000%00:00 (00:00)aGGlosaGGlos
241 Crying Pony Apr 19, 2023 $8.99N/A (N/A)20,000 .. 50,0000%00:00 (00:00)CreSpiritCreSpirit
242 Reflection: The Greed Apr 14, 2023 $6.99N/A (N/A)0 .. 20,0000%00:00 (00:00)Zonex Entertainment StudiosZonex Entertainment Studios
243 Dance of Cards Apr 14, 2023 $9.99N/A (N/A)0 .. 20,0000%00:00 (00:00)GoodMorningMrFrogPineapple Works
244 illWill Apr 13, 2023 $19.99N/A (N/A)0 .. 20,0000%00:00 (00:00)Slava BushuevSlava Bushuev
245 Tron: Identity Apr 11, 2023 $11.99N/A (N/A)20,000 .. 50,0000%00:00 (00:00)Bithell GamesBithell Games
246 Soundodger 2 Apr 10, 2023 $19.99N/A (N/A)0 .. 20,0000%00:00 (00:00)Studio BeanStudio Bean
247 Rendezvous Apr 10, 2023 $12.99N/A (N/A)50,000 .. 100,0000%00:00 (00:00)Pendopo CreationsHitcents
248 The Library of Babel Apr 6, 2023 $18.99N/A (N/A)200,000 .. 500,0000%00:00 (00:00)Tanuki Game StudioNeon Doctrine
249 Cold Harvest Apr 6, 2023 $9.99N/A (N/A)0 .. 20,0000%00:00 (00:00)Grebot GamesGrebot Games
250 Hill Agency: PURITYdecay Mar 31, 2023 $24.99N/A (N/A)20,000 .. 50,0000%00:00 (00:00)Achimostawinan GamesAchimostawinan Games
251 Operator8 Mar 31, 2023 $8.5N/A (N/A)0 .. 20,0000%00:00 (00:00)Aligned GamesAligned Games
252 The Space Bar Mar 30, 2023 $9.99N/A (N/A)100,000 .. 200,0000%00:00 (00:00)Boffo Intergalactic Games, Jordan Freeman Group, Rocket Science Games, SegaSoftBoffo Intergalactic Games, ZOOM Platform Media
253 VOYAGER Mar 25, 2023 $1.99N/A (N/A)20,000 .. 50,0000%00:00 (00:00)Planetary Gears, Logical ExtremesPlanetary Gears
254 Misericorde: Volume One Mar 23, 2023 $8.99N/A (N/A)0 .. 20,0000%00:00 (00:00)XEECEEXEECEE
255 十月怪谈-Insane Rules Mar 17, 2023 $2.99N/A (N/A)50,000 .. 100,0000%00:00 (00:00)橙光游戏橙光游戏
256 The Viriditas Chapel of Perpetual Adoration Mar 13, 2023 $4.99N/A (N/A)0 .. 20,0000%00:00 (00:00)Michael SamynSong of Songs, Liminous Editions, Tale of Tales
257 The Crimping Mar 10, 2023 $4.99N/A (N/A)0 .. 20,0000%00:00 (00:00)MMG CompanyMMG Company
258 HOPE LEFT ME Mar 10, 2023 $1.99N/A (N/A)20,000 .. 50,0000%00:00 (00:00)Astrophysics.orphans
259 Floor44 Mar 9, 2023 $9.99N/A (N/A)0 .. 20,0000%00:00 (00:00)Glen GamesGlen Games
260 Neopunk Feb 28, 2023 $1.99N/A (N/A)20,000 .. 50,0000%00:00 (00:00)Solohack3r StudiosSolohack3r Studios
261 PARANORMAL GIRLFRIEND Feb 27, 2023 $5.99N/A (N/A)0 .. 20,0000%00:00 (00:00)SpoocleMacBoogleSpoocleMacBoogle
262 The Last Werewolf Feb 23, 2023 $5.99N/A (N/A)200,000 .. 500,0000%00:00 (00:00)Unnatural Freaks StudioUnnatural Freaks Studio
263 Mythargia Feb 20, 2023 $5.99N/A (N/A)0 .. 20,0000%00:00 (00:00)RunByCoffeeBonus Stage Publishing
264 Gomorrah Feb 16, 2023 $2.99N/A (N/A)100,000 .. 200,0000%00:00 (00:00)Sandbox34BigThings
265 Crime Passional Feb 13, 2023 $2.99N/A (N/A)0 .. 20,0000%00:00 (00:00)David PatetiDavid Pateti
266 Moxie's Lemon Feb 10, 2023 $2N/A (N/A)50,000 .. 100,0000%00:00 (00:00)Rosstin MurphyAqualuft Games
267 Death Trials (Director's Cut) Feb 8, 2023 $4.99N/A (N/A)0 .. 20,0000%00:00 (00:00)Made in America Media, LLCMade in America Media, LLC
268 Dungeon Shooter : Dark Temple Feb 2, 2023 $9.99N/A (N/A)0 .. 20,0000%00:00 (00:00)IMCrazyIMCrazy
269 Tell Some Story: Foz Feb 2, 2023 $9.99N/A (N/A)0 .. 20,0000%00:00 (00:00)Camelot.TDMCamelot.TDM
270 GRUNND Jan 26, 2023 $14.99N/A (N/A)50,000 .. 100,0000%00:00 (00:00)SEKTAHOUSESEKTAHOUSE
271 Larcin Lazer Jan 24, 2023 $9.99N/A (N/A)0 .. 20,0000%00:00 (00:00)Tambouille, Géraud ZucchiniTambouille
272 Mangavania Jan 20, 2023 $4.99N/A (N/A)0 .. 20,0000%00:00 (00:00)Alexander NikolaevSometimes You
273 FORTUNE the FATED Jan 19, 2023 $4.99N/A (N/A)0 .. 20,0000%00:00 (00:00)Hosted GamesHosted Games
274 It Lurks! A Noir Horror RPG. Jan 18, 2023 $2.99N/A (N/A)20,000 .. 50,0000%00:00 (00:00)Mystic Sword GamingMystic Sword Gaming
275 Fears to Fathom - Carson House Jan 9, 2023 $4.99N/A (N/A)50,000 .. 100,0000%00:00 (00:00)RayllRayll
276 Neon Noir Jan 5, 2023 $4.99N/A (N/A)50,000 .. 100,0000%00:00 (00:00)Borzon StudiosBorzon Studios
277 Clash: Robot Detective - Complete Edition Jan 2, 2023 $5.99N/A (N/A)50,000 .. 100,0000%00:00 (00:00)Drone Garden StudiosDrone Garden Studios
278 Family Business Dec 28, 2022 $4.99N/A (N/A)20,000 .. 50,0000%00:00 (00:00)Dylan RamosDylan Ramos
279 SCP - The Sentient Box Dec 22, 2022 $10.99N/A (N/A)0 .. 20,0000%00:00 (00:00)Hybriona Technologies LLPHybriona Technologies LLP
280 White Dec 21, 2022 $2.99N/A (N/A)0 .. 20,0000%00:00 (00:00)ComfycozyComfycozy
281 《乱步馆》-断崖 -Precipice Dec 21, 2022 $0.99N/A (N/A)50,000 .. 100,0000%00:00 (00:00)多年以后的卡米拉多年以后的卡米拉
282 Detective Rosie Morgan: Death at a Dinner Party Dec 19, 2022 $6.99N/A (N/A)0 .. 20,0000%00:00 (00:00)Little Black Book EntertainmentLittle Black Book Entertainment
283 Surrealidade - Definitive Edition Dec 8, 2022 $7.99N/A (N/A)0 .. 20,0000%00:00 (00:00)Dimitri Kozma, Orbe FilmesDimitri Kozma
284 Dissolved - Chapter One Dec 8, 2022 $9.99N/A (N/A)0 .. 20,0000%00:00 (00:00)Absorb RealityAbsorb Reality
285 The eagle keita Dec 6, 2022 $0.99N/A (N/A)0 .. 20,0000%00:00 (00:00)African boy Keita studioAfrican boy Keita studio
286 Magnus Positive Phototaxis Nov 29, 2022 $4.99N/A (N/A)200,000 .. 500,0000%00:00 (00:00)Sons of Welder, FM Simple Games StudioSons of Welder, FM Simple Games Studio
287 Twin Mind: Nobody's Here Collector's Edition Nov 28, 2022 $6.99N/A (N/A)200,000 .. 500,0000%00:00 (00:00)Do Games LimitedDo Games Limited
288 DreamCell: Lost in Nightmares Nov 25, 2022 $5.99N/A (N/A)0 .. 20,0000%00:00 (00:00)Blockcode GamesBlockcode Games
289 Antioch: Scarlet Bay Nov 25, 2022 $4.99N/A (N/A)100,000 .. 200,0000%00:00 (00:00)Midnight Mood StudioUnexpected, FondGame
290 Back to the Scene Nov 23, 2022 $9.99N/A (N/A)20,000 .. 50,0000%00:00 (00:00)欢乐不二方块游戏(CubeGame)
291 MMI Nov 20, 2022 $9.99N/A (N/A)0 .. 20,0000%00:00 (00:00)Studio2760, DnovelStudio2760
292 Pixel Gangsters: Mafia Manager Nov 14, 2022 $9.99N/A (N/A)0 .. 20,0000%00:00 (00:00)Gidib GamesGidib Games
293 Aswang Detective: The Case of New York Nov 9, 2022 $14.99N/A (N/A)0 .. 20,0000%00:00 (00:00)Michael Richard LannonMichael Richard Lannon
294 the hardest game in the universe 2 Nov 8, 2022 FreeN/A (N/A)0 .. 20,0000%00:00 (00:00)Christian tavares da silvaKATHGAMES
295 NiGHT SIGNAL Nov 7, 2022 $9.99N/A (N/A)0 .. 20,0000%00:00 (00:00)Night Signal EntertainmentNight Signal Entertainment
296 Inspector Detective: Private Eye Oct 31, 2022 $4.99N/A (N/A)0 .. 20,0000%00:00 (00:00)Michael GilmourA Winter's Night Games
297 I live under your house. Oct 31, 2022 $1.99N/A (N/A)20,000 .. 50,0000%00:00 (00:00)SpoocleMacBoogleSpoocleMacBoogle
298 Beasts Shall Rise Oct 26, 2022 $11.99N/A (N/A)0 .. 20,0000%00:00 (00:00)Goblin Games LtdGoblin Games Ltd
299 Endoparasitic Oct 24, 2022 $9.99N/A (N/A)200,000 .. 500,0000%00:00 (00:00)Deep Root InteractiveDeep Root Interactive
300 I See Red Oct 24, 2022 $9.99N/A (N/A)20,000 .. 50,0000%00:00 (00:00)Whiteboard GamesWhiteboard Games
301 Chacara Oct 19, 2022 $2.99N/A (N/A)20,000 .. 50,0000%00:00 (00:00)David PatetiDavid Pateti
302 Candlehead Oct 17, 2022 $0.99N/A (N/A)20,000 .. 50,0000%00:00 (00:00)Ammonite Design Studios LtdAmmonite Design Studios Ltd
303 DnD Adventure: Rogue's Choice Oct 10, 2022 $4.99N/A (N/A)0 .. 20,0000%00:00 (00:00)CCSDelight Games
304 Neuro Horror Oct 6, 2022 $0.99N/A (N/A)0 .. 20,0000%00:00 (00:00)AK StudioAK Studio
305 Nick Bounty - The Goat in the Grey Fedora: Remastered Oct 3, 2022 $2.99N/A (N/A)0 .. 20,0000%00:00 (00:00)Pinhead GamesPinhead Games
306 Lost2 Sep 30, 2022 $15.99N/A (N/A)20,000 .. 50,0000%00:00 (00:00)DSGameDSGame
307 PermaNight Sep 30, 2022 $1.99N/A (N/A)50,000 .. 100,0000%00:00 (00:00)Garamonds StudiosGaramonds Studios
308 Serial Cleaners Sep 22, 2022 $24.99N/A (N/A)20,000 .. 50,0000%00:00 (00:00)Draw Distance505 Games
309 Squad 51 vs. the Flying Saucers Sep 21, 2022 $19.99N/A (N/A)20,000 .. 50,0000%00:00 (00:00)Loomiarts, Fehorama FilmesWhisperGames, Assemble Entertainment
310 Mouse People Sep 14, 2022 $2.24N/A (N/A)0 .. 20,0000%00:00 (00:00)LiujiajunLiujiajun, Gamera Games, YLS Program
311 Outside the Window Sep 14, 2022 $0.99N/A (N/A)0 .. 20,0000%00:00 (00:00)LiujiajunLiujiajun, Gamera Games
312 Total Rendition Sep 13, 2022 N/AN/A (N/A)0 .. 20,0000%00:00 (00:00)SchiZotypy GamesSchiZotypy Games
313 Betrayal At Club Low Sep 9, 2022 $6.69N/A (N/A)50,000 .. 100,0000%00:00 (00:00)Cosmo D StudiosCosmo D Studios
314 Connected Hearts: Fortune Play Collector's Edition Sep 5, 2022 $6.99N/A (N/A)0 .. 20,0000%00:00 (00:00)Do Games LimitedDo Games Limited
315 City Legends: Trapped In Mirror Collector's Edition Aug 30, 2022 $6.99N/A (N/A)20,000 .. 50,0000%00:00 (00:00)Do Games LimitedDo Games Limited
316 The Vaults of Minos Aug 29, 2022 $4N/A (N/A)0 .. 20,0000%00:00 (00:00)Thunder Perfect WitchcraftThunder Perfect Witchcraft
317 Necropolis of the Angels Aug 27, 2022 $1.99N/A (N/A)20,000 .. 50,0000%00:00 (00:00)Tony McKormackAbomination Games
318 Soul Hackers 2 Aug 25, 2022 $59.99N/A (N/A)100,000 .. 200,0000%00:00 (00:00)ATLUSSEGA
319 The Beat: A Glam Noir Game Aug 23, 2022 $19.99N/A (N/A)0 .. 20,0000%00:00 (00:00)Up MultimediaUp Multimedia
320 Light Aug 19, 2022 $0.99N/A (N/A)20,000 .. 50,0000%00:00 (00:00)individualindividual
321 Codename Nemesis Aug 11, 2022 $1.99N/A (N/A)20,000 .. 50,0000%00:00 (00:00)Broken Helm StudioBroken Helm Studio
322 Magic Сity Detective: Secret Desire Collector's Edition Aug 9, 2022 $6.99N/A (N/A)0 .. 20,0000%00:00 (00:00)Do Games LimitedDo Games Limited
323 Hidden Objects with Edgar Allan Poe - Mystery Detective Aug 5, 2022 $2.99N/A (N/A)0 .. 20,0000%00:00 (00:00)Crisp App StudioCrisp App Studio
324 LUMbA: REDUX Aug 4, 2022 $4.99N/A (N/A)20,000 .. 50,0000%00:00 (00:00)Team LumbaLarsonsoft
325 Bug Dolls: Soviet Project Aug 2, 2022 $9.99N/A (N/A)0 .. 20,0000%00:00 (00:00)AK StudioAK Studio
326 Yoko Redux: Dreams of a Blue Planet Jul 29, 2022 $9.99N/A (N/A)0 .. 20,0000%00:00 (00:00)Missing Sentinel SoftwareRedTigerPro
327 Domum Jul 29, 2022 $0.99N/A (N/A)0 .. 20,0000%00:00 (00:00)Forgotten CodeForgotten Code
328 Hunkenstein Jul 27, 2022 $7.99N/A (N/A)0 .. 20,0000%00:00 (00:00)OublietteOubliette
329 Voltage High Society Jul 27, 2022 $14.99N/A (N/A)200,000 .. 500,0000%00:00 (00:00)Platonic PartnershipPlatonic Partnership, Cosmorama
330 Witness of the Night Jul 27, 2022 $4.99N/A (N/A)50,000 .. 100,0000%00:00 (00:00)SpoocleMacBoogleSpoocleMacBoogle
331 Chameleon - DYH Jul 25, 2022 $9.99N/A (N/A)0 .. 20,0000%00:00 (00:00)DYHWinCode
332 Through the night Jul 24, 2022 $0.99N/A (N/A)0 .. 20,0000%00:00 (00:00)Yihu TeamYihu Team
333 Mothmen 1966 Jul 14, 2022 $8.99N/A (N/A)20,000 .. 50,0000%00:00 (00:00)LCB Game StudioChorus Worldwide Games
334 Mystery of Mortlake Mansion Jul 8, 2022 $5.99N/A (N/A)0 .. 20,0000%00:00 (00:00)Best Games CollectionHH-Games
335 开路先锋S:Open Road First Front S Jul 4, 2022 $5.99N/A (N/A)0 .. 20,0000%00:00 (00:00)开路先锋工作室开路先锋工作室
336 AI: THE SOMNIUM FILES - nirvanA Initiative Jun 24, 2022 $59.99N/A (N/A)200,000 .. 500,0000%00:00 (00:00)Spike Chunsoft Co., Ltd.Spike Chunsoft Co., Ltd.
337 Blade Runner: Enhanced Edition Jun 23, 2022 $9.99N/A (N/A)200,000 .. 500,0000%00:00 (00:00)Nightdive Studios, Westwood StudiosNightdive Studios
338 我感染HIV了吗 Jun 20, 2022 $0.99N/A (N/A)20,000 .. 50,0000%00:00 (00:00)硬石工作室硬石工作室
339 Strange Investigations: Two for Solitaire Collector's Edition Jun 17, 2022 $13.99N/A (N/A)0 .. 20,0000%00:00 (00:00)ElephantBig Fish Games
340 CROPPED Jun 10, 2022 $2.99N/A (N/A)100,000 .. 200,0000%00:00 (00:00)Shroudy SoftwareShroudy Software
341 Meteor World Actor: Badge & Dagger Jun 9, 2022 $17.99N/A (N/A)50,000 .. 100,0000%00:00 (00:00)HeliodorShiravune
342 Eyes of Darkness May 31, 2022 $6.99N/A (N/A)20,000 .. 50,0000%00:00 (00:00)Gianluca MarottaGianluca Marotta
343 Melania May 30, 2022 $0.99N/A (N/A)0 .. 20,0000%00:00 (00:00)DnovelTrinity Project
344 NetSpace Saga Ep.1 May 26, 2022 $5.99N/A (N/A)20,000 .. 50,0000%00:00 (00:00)Hollow Games, Daniel Arevalo RodilHollow Games
345 Unwell Known May 26, 2022 $9.99N/A (N/A)0 .. 20,0000%00:00 (00:00)BoxCutter Game StudioMeganivel
346 Nedia Hotel May 25, 2022 $0.99N/A (N/A)0 .. 20,0000%00:00 (00:00)DsAWTiltedGear Studios
347 Voodoo Detective May 24, 2022 $14.99N/A (N/A)20,000 .. 50,0000%00:00 (00:00)Short Sleeve Studio, LLCShort Sleeve Studio, LLC
348 Dread X Collection 5 May 20, 2022 $9.99N/A (N/A)20,000 .. 50,0000%00:00 (00:00)Christopher Yabsley, Stroboskop, VisceralError, Nikk F., FYRE Games, Roope Tamminen, Shakles, Darkstone Digital, Philisophic Games, Colorfiction, iwilliams, Matt Reeves, Abbey 'Scruncho' SmithDreadXP
349 Volvalis May 17, 2022 $59.99N/A (N/A)0 .. 20,0000%00:00 (00:00)DaveighSoftMagistrar Studios, Indirect Stress Entertainment, Escher Shadow Pictures
350 Orph - The Lost Boy May 16, 2022 $5.99N/A (N/A)0 .. 20,0000%00:00 (00:00)Marius PopaMarius Popa
351 Hellfire 1988: An Oregon Story May 11, 2022 $0.99N/A (N/A)20,000 .. 50,0000%00:00 (00:00)MMG CompanyMMG Company
352 La Jetée May 4, 2022 $0.99N/A (N/A)0 .. 20,0000%00:00 (00:00)Arthouse indie GamesArthouse indie Games
353 DEEP FOG Apr 29, 2022 $14.99N/A (N/A)50,000 .. 100,0000%00:00 (00:00)Devil Beetle GamesDevil Beetle Games
354 Russian Prison Tattoo Simulator Apr 15, 2022 $1.99N/A (N/A)0 .. 20,0000%00:00 (00:00)Talentless Person GamesTalentless Person Games
355 The Atlas Mystery: A VR Puzzle Game Apr 12, 2022 $14.99N/A (N/A)50,000 .. 100,0000%00:00 (00:00)Top Right CornerTRC DMI
356 Hidden Cats in Paris Mar 31, 2022 $1.99N/A (N/A)20,000 .. 50,0000%00:00 (00:00)Nukearts StudioNukearts Studio
357 Hirilun Mar 14, 2022 $9.99N/A (N/A)20,000 .. 50,0000%00:00 (00:00)Gone Mad StudiosMeridian4
358 道不可道 Mar 12, 2022 $1.99N/A (N/A)200,000 .. 500,0000%00:00 (00:00)乐子人乐子人
359 YUZA Mar 6, 2022 $0.99N/A (N/A)0 .. 20,0000%00:00 (00:00)DnovelConglomerate 5
360 Trapped In Stone - World War II Horror Mar 2, 2022 $1.99N/A (N/A)20,000 .. 50,0000%00:00 (00:00)W0nnaFightW0nnaFight
361 Night Cascades Mar 1, 2022 $9.99N/A (N/A)50,000 .. 100,0000%00:00 (00:00)Hanako GamesHanako Games
362 System Under Surveillance Feb 25, 2022 $15.99N/A (N/A)50,000 .. 100,0000%00:00 (00:00)Ink To PixelsInk To Pixels
363 THE BYTE Mar 15, 2021 $24.99N/A (N/A)0 .. 20,0000%00:00 (00:00)AVAKEAVAKE
364 Trapped in the Forest Feb 11, 2022 $4.99N/A (N/A)20,000 .. 50,0000%00:00 (00:00)Ammonite Design Studios LtdAmmonite Design Studios Ltd
365 KINGDOM of the DEAD Feb 10, 2022 $14.99N/A (N/A)20,000 .. 50,0000%00:00 (00:00)DIRIGO GAMESHOOK
366 Air Traffic: Greenlight Feb 3, 2022 $7.99N/A (N/A)0 .. 20,0000%00:00 (00:00)GyroXGyroX
367 Corridors Jan 31, 2022 $4.99N/A (N/A)100,000 .. 200,0000%00:00 (00:00)Latent MaliceLatent Malice
368 Blank Frame Jan 27, 2022 $4.99N/A (N/A)20,000 .. 50,0000%00:00 (00:00)Through TunnelSumerian Games
369 巨 ~Gigantify~ Jan 23, 2022 $0.99N/A (N/A)0 .. 20,0000%00:00 (00:00)EviTReaEviTRea
370 Word Game Jan 21, 2022 $34.99N/A (N/A)200,000 .. 500,0000%00:00 (00:00)Team9Team9, indienova, Path
371 守护者盟约 Jan 20, 2022 $4.99N/A (N/A)0 .. 20,0000%00:00 (00:00)红星电钮组
372 DARK MINUTE: Kira's Adventure Jan 20, 2022 $12.99N/A (N/A)0 .. 20,0000%00:00 (00:00)KovalGamesKovalGames
373 The Immaculate Drag Jan 17, 2022 $1.99N/A (N/A)0 .. 20,0000%00:00 (00:00)Discrete InfinityDiscrete Infinity
374 Reloader: test_subject Jan 14, 2022 $0.99N/A (N/A)50,000 .. 100,0000%00:00 (00:00)Nevertheless StudioPsychoFlux Entertainment
375 Word of the Law: Death Mask Collector's Edition Jan 10, 2022 $6.99N/A (N/A)20,000 .. 50,0000%00:00 (00:00)DominiGamesDominiGames
376 MAFIA: Family's Secret Jan 8, 2022 $6.99N/A (N/A)20,000 .. 50,0000%00:00 (00:00)Tails GamesTails Games
377 Fears to Fathom - Norwood Hitchhike Jan 6, 2022 $4.99N/A (N/A)50,000 .. 100,0008.33%03:23 (01:07)RayllRayll
378 Air Traffic BLITZ VR Dec 24, 2021 $4.99N/A (N/A)0 .. 20,0000%00:00 (00:00)BLITZ VRBLITZ VR
379 Mystical Riddles: Snowy Peak Hotel Collector's Edition Dec 21, 2021 $4.19N/A (N/A)20,000 .. 50,0000%00:00 (00:00)DominiGamesDominiGames
380 Void Frame Dec 15, 2021 $0.99N/A (N/A)0 .. 20,0000%00:00 (00:00)mingkly gamemingkly game
381 Do Something Dec 15, 2021 N/AN/A (N/A)50,000 .. 100,0000%00:00 (00:00)StrelitziaGamesStrelitziaGames
382 Criminal Archives: City on Fire Collector's Edition Dec 14, 2021 $6.99N/A (N/A)50,000 .. 100,0000%00:00 (00:00)DominiGamesDominiGames
383 The Divine Deception Dec 3, 2021 $14.99N/A (N/A)20,000 .. 50,0000%00:00 (00:00)ThemisianThemisian
384 The Divine Invasion Aug 30, 2020 $24.99N/A (N/A)50,000 .. 100,0000%00:00 (00:00)Whale Rock GamesWhale Rock Games
385 A Visit to Friends Dec 2, 2021 FreeN/A (N/A)50,000 .. 100,0000%00:00 (00:00)Joel D....
386 My Cashy Side Job at Lost&Found in the Subway of Million-Person City Nov 25, 2021 $2.99N/A (N/A)0 .. 20,0000%00:00 (00:00)Unusual MeaningRegrette LKP, BEER FROTH
387 French Crime detective game Nov 25, 2021 $19.99N/A (N/A)50,000 .. 100,0000%00:00 (00:00)Rakame 7Rakame 7
388 Clou - Roll & Heist Nov 24, 2021 $5.99N/A (N/A)0 .. 20,0000%00:00 (00:00)Boardgame Racoon e.K.Boardgame Racoon e.K.
389 DeRailed Nov 22, 2021 $4.99N/A (N/A)50,000 .. 100,0000%00:00 (00:00)KanapaGamesKanapaGames
390 Nix Umbra Nov 19, 2021 $9.99N/A (N/A)50,000 .. 100,0000%00:00 (00:00)ilzardilzard
391 Dr Iwan: Evolution Nov 19, 2021 $6.99N/A (N/A)0 .. 20,0000%00:00 (00:00)OMSTUDIOOMSTUDIO
392 Edwardo Nov 12, 2021 $0.99N/A (N/A)20,000 .. 50,0000%00:00 (00:00)Lewis Spalato, Andrew SpalatoLewis Spalato
393 Coolbit Nov 10, 2021 $0.99N/A (N/A)50,000 .. 100,0000%00:00 (00:00)JF Nova StudioJF Nova Studio
394 Madrid Noir Nov 8, 2021 $8.99N/A (N/A)20,000 .. 50,0000%00:00 (00:00)No Ghost, Atlas VAstrea
395 Nott Longa Nov 5, 2021 $4.99N/A (N/A)20,000 .. 50,0000%00:00 (00:00)AmhardcoreAmhardcore
396 Fears of Glasses o-o Nov 4, 2021 $9.99N/A (N/A)20,000 .. 50,0000%00:00 (00:00)HedeHede
397 Somniphobia Oct 31, 2021 $0.99N/A (N/A)100,000 .. 200,0000%00:00 (00:00)Ethan Harris-AustinEthan Harris-Austin
398 P.U.R.G.A.T.O.R.Y Oct 27, 2021 $2.99N/A (N/A)0 .. 20,0000%00:00 (00:00)LooseScrew GamesLooseScrew Games
399 Murder Diaries 2 Oct 27, 2021 $9.99N/A (N/A)0 .. 20,0000%00:00 (00:00)EpiXR Games UGEpiXR Games UG
400 At Eve’s Wake Definitive Edition Oct 30, 2021 $9.99N/A (N/A)20,000 .. 50,0000%00:00 (00:00)Sugar Rush StudiosSugar Rush Studios
401 Creepy Mahjong Oct 25, 2021 $7.99N/A (N/A)0 .. 20,0000%00:00 (00:00)Biim GamesBiim Games
402 Up All Night Oct 20, 2021 $6.99N/A (N/A)0 .. 20,0000%00:00 (00:00)Fiendish FictionFiendish Fiction
403 恶灵退散 Go Back to Hell Oct 20, 2021 $0.49N/A (N/A)50,000 .. 100,0000%00:00 (00:00)冷笑黑妖冷笑黑妖
404 Flaskoman Oct 2, 2021 $0.79N/A (N/A)20,000 .. 50,0000%00:00 (00:00)Flying Islands TeamFlying Islands Team
405 Coffee Noir - Business Detective Game Sep 30, 2021 $13.99N/A (N/A)0 .. 20,0000%00:00 (00:00)DOJI, NAOS SoftwareDOJI
406 阴缘 Sep 27, 2021 $3.99N/A (N/A)20,000 .. 50,0000%00:00 (00:00)Huochairen Interactive EntertainmentHuochairen Interactive Entertainment
407 Roseblight Sep 25, 2021 $7.99N/A (N/A)100,000 .. 200,0000%00:00 (00:00)AploveStudioAploveStudio
408 City Legends: The Curse of the Crimson Shadow Collector's Edition Sep 21, 2021 $6.99N/A (N/A)20,000 .. 50,0000%00:00 (00:00)DominiGamesDominiGames
409 Universe 25 Sep 20, 2021 $1.99N/A (N/A)200,000 .. 500,0000%00:00 (00:00)The Northern BureauThe Northern Bureau
410 Murder Diaries Sep 17, 2021 $9.99N/A (N/A)0 .. 20,0000%00:00 (00:00)EpiXR Games UGEpiXR Games UG
411 Filcher Sep 14, 2021 $9.99N/A (N/A)0 .. 20,0000%00:00 (00:00)Johan HjärpeMythoLogic Interactive
412 The Dawning Clocks Of Time Sep 8, 2021 $24.99N/A (N/A)200,000 .. 500,0000%00:00 (00:00)Spacefarer R&D Ltd.Spacefarer R&D Ltd.
413 Synthwave Burnout Sep 4, 2021 $0.89N/A (N/A)20,000 .. 50,0000%00:00 (00:00)Whale Rock GamesWhale Rock Games
414 Murder Mystery Machine Aug 25, 2021 $19.99N/A (N/A)0 .. 20,0000%00:00 (00:00)Blazing GriffinMicroids
415 Furious Revenge of Bolo Aug 22, 2021 $4.99N/A (N/A)0 .. 20,0000%00:00 (00:00)Dnovel, FreeAnimals_SoftwareDnovel
416 Clean Slate Aug 13, 2021 $4.99N/A (N/A)50,000 .. 100,0000%00:00 (00:00)Mariano JarTime Ajar
417 FORECLOSED Aug 12, 2021 $16.99N/A (N/A)0 .. 20,0000%00:00 (00:00)Antab StudioMerge Games
418 Glitchpunk Aug 11, 2021 $19.99N/A (N/A)0 .. 20,0000%00:00 (00:00)Dark LordDaedalic Entertainment
419 City of Gangsters Aug 9, 2021 $29.99N/A (N/A)100,000 .. 200,0000%00:00 (00:00)SomaSimKasedo Games
420 Jude Aug 9, 2021 $11.99N/A (N/A)20,000 .. 50,0000%00:00 (00:00)Trois7èmeTrois7ème
421 BUSTAFELLOWS Jul 30, 2021 $39.99N/A (N/A)20,000 .. 50,0000%00:00 (00:00)NIPPON CULTURAL BROADCASTING EXTEND INC.PQube
422 Traditional Chinese Medicine Simulator Jul 28, 2021 $14.99N/A (N/A)0 .. 20,0000%00:00 (00:00)曲波曲波
423 MOONWAVE OVERDRIVE Jul 28, 2021 N/AN/A (N/A)0 .. 20,0000%00:00 (00:00)Virtual EditionVirtual Edition
424 Intravenous Jul 26, 2021 $19.99N/A (N/A)100,000 .. 200,0000%00:00 (00:00)Explosive Squat GamesHypeTrain Digital
425 Big NEON Tower VS Tiny Square Jul 26, 2021 $4.99N/A (N/A)100,000 .. 200,0000%00:00 (00:00)Evil ObjectiveEO Interactive Ltd.
426 Azurael’s Circle: Chapter 5 Jul 24, 2021 $1.99N/A (N/A)20,000 .. 50,0000%00:00 (00:00)Jordan AllenEnkian Games
427 Reality's Reverse Side Jul 22, 2021 FreeN/A (N/A)20,000 .. 50,0000%00:00 (00:00)CupcakeTime TeamPhoenix_co
428 The Secret of Retropolis Jul 21, 2021 $9.99N/A (N/A)100,000 .. 200,0000%00:00 (00:00)Peanut ButtonPeanut Button
429 Dead-End Detective: The Sixpence Strangler Jul 21, 2021 $3.99N/A (N/A)20,000 .. 50,0000%00:00 (00:00)A RanDom FellaA RanDom Fella
430 Gypsy Retro TV Media Player Jul 19, 2021 $7.99N/A (N/A)0 .. 20,0000%00:00 (00:00)DP CORPORATIONDP CORPORATION
431 Martin Goes on the Attack Jul 16, 2021 $0.99N/A (N/A)0 .. 20,0000%00:00 (00:00)DnovelConglomerate 5
432 Magnus Failure Jul 1, 2021 $4.99N/A (N/A)0 .. 20,0000%00:00 (00:00)Sons of welderSons of welder, FM Simple Games Studio
433 The List Jun 29, 2021 $5.99N/A (N/A)100,000 .. 200,0000%00:00 (00:00)Dan TrimbleDan Trimble
434 Gazmatera: Return Of The Generals Jun 21, 2021 $7.99N/A (N/A)100,000 .. 200,0000%00:00 (00:00)KatapultDiaksor
435 Chicken Holmes - Chanislavski Whispers Jun 17, 2021 $1.99N/A (N/A)50,000 .. 100,0000%00:00 (00:00)DreamlikeDreamlike
436 Rosemary's Fate Life Worth Living Jun 16, 2021 $9.99N/A (N/A)0 .. 20,0000%00:00 (00:00)Game The Same, The MidworldGame The Same
437 Killer Ricky Jun 14, 2021 $2.99N/A (N/A)0 .. 20,0000%00:00 (00:00)QSKoya Game
438 Dark Harvest Jun 11, 2021 $4.99N/A (N/A)100,000 .. 200,0000%00:00 (00:00)Kitungo StudiosKitungo Studios
439 Warplane inc. Jun 8, 2021 $6.99N/A (N/A)0 .. 20,0000%00:00 (00:00)Nuclear GamesNuclear Games
440 Tails Noir Jun 8, 2021 $24.99N/A (N/A)500,000 .. 1,000,0000%00:00 (00:00)EggnutRaw Fury
441 Critters for Sale Jun 3, 2021 $9.99N/A (N/A)50,000 .. 100,0000%00:00 (00:00)SonosheeSonoshee
442 The Longest Road on Earth May 27, 2021 $9.99N/A (N/A)0 .. 20,0000%00:00 (00:00)Brainwash Gang, TLR GamesRaw Fury
443 Lipstick Assassin May 25, 2021 $0.99N/A (N/A)50,000 .. 100,0000%00:00 (00:00)Pamela Linares, Gamma Ray ChamberGamma Ray Chamber
444 A Strange City May 20, 2021 $0.99N/A (N/A)0 .. 20,0000%00:00 (00:00)DnovelMy Way Games
445 Fearmonium May 20, 2021 $12.99N/A (N/A)0 .. 20,0000%00:00 (00:00)Redblack SpadeRedblack Spade
446 Ms.Director May 17, 2021 $4.99N/A (N/A)0 .. 20,0000%00:00 (00:00)SketchyNonsenseSketchyNonsense
447 Crime Reaper May 12, 2021 $8.99N/A (N/A)0 .. 20,0000%00:00 (00:00)Potato InteractivePotato Interactive
448 Planets Battle May 3, 2021 $99.99N/A (N/A)0 .. 20,0000%00:00 (00:00)HedeHede
449 MAMIYA Apr 30, 2021 $19.99N/A (N/A)0 .. 20,0000%00:00 (00:00)Kenkou LandFruitbat Factory
450 Under The Ghost Mountain Apr 29, 2021 $1.99N/A (N/A)0 .. 20,0000%00:00 (00:00)liangxiegameliangxiegame
451 Bus stop in the fog Apr 29, 2021 $0.99N/A (N/A)0 .. 20,0000%00:00 (00:00)Etienne AndlauPencilgun
452 魔法与高塔 Apr 23, 2021 $0.99N/A (N/A)0 .. 20,0000%00:00 (00:00)cryhadescryhades
453 Don't Forget Me Apr 20, 2021 N/AN/A (N/A)0 .. 20,0000%00:00 (00:00)The Moon PiratesThe Moon Pirates, Wings
454 The Last Order: Dungeons Apr 16, 2021 $0.99N/A (N/A)0 .. 20,0000%00:00 (00:00)FoxSox GamesFoxSox Games
455 MAZE: A VR Adventure Apr 16, 2021 $5.99N/A (N/A)0 .. 20,0000%00:00 (00:00)GLGamesGLGames
456 Memento Infernum Apr 16, 2021 FreeN/A (N/A)0 .. 20,0000%00:00 (00:00)MGames StudioMGames Studio
457 The Dark Apr 12, 2021 $1.99N/A (N/A)0 .. 20,0000%00:00 (00:00)Light Arc Studio LtdLight Arc Studio Ltd
458 I Make Saints (Steam Edition) Apr 5, 2021 $3.99N/A (N/A)20,000 .. 50,0000%00:00 (00:00)Somewhat SoftwareSomewhat Software
459 SDST: Deluxe Apr 5, 2021 N/AN/A (N/A)0 .. 20,0000%00:00 (00:00)Banana CatBanana Cat
460 Alexey's Winter: Night Adventure Apr 4, 2021 $6.99N/A (N/A)20,000 .. 50,0000%00:00 (00:00)NezhysoftNezhysoft
461 Sovietpunk: Chapter one Apr 2, 2021 $0.99N/A (N/A)20,000 .. 50,0000%00:00 (00:00)Hot ChillHot Chill
462 Rogues Adventure Mar 30, 2021 $0.28N/A (N/A)0 .. 20,0000%00:00 (00:00)SammyLandkovalevviktor
463 Aloof Mar 25, 2021 $4.99N/A (N/A)0 .. 20,0000%00:00 (00:00)ButtonXButtonX
464 Ritual Mar 25, 2021 $0.99N/A (N/A)0 .. 20,0000%00:00 (00:00)Valera EntertainmentValera Entertainment
465 ROUGH KUTS: Night of the Living Dead Mar 23, 2021 $0.99N/A (N/A)200,000 .. 500,0000%00:00 (00:00)ROUGH KUTSROUGH KUTS
466 Inspector Waffles Mar 23, 2021 $12.99N/A (N/A)0 .. 20,0000%00:00 (00:00)Goloso GamesGoloso Games
467 Town of Machine Mar 22, 2021 $12.99N/A (N/A)20,000 .. 50,0000%00:00 (00:00)BlueEagle ProductionsPaul Schneider
468 Sweep Mar 20, 2021 $0.99N/A (N/A)100,000 .. 200,0000%00:00 (00:00)TwoGen SoftwareTwoGen Software
469 Kuro Neko Mar 17, 2021 $2.99N/A (N/A)0 .. 20,0000%00:00 (00:00)GXPlayGXPlay
470 Prison 69 Mar 1, 2021 N/AN/A (N/A)0 .. 20,0000%00:00 (00:00)MS Game StudioMS Game Studio
471 TAL: Arctic 4 Feb 25, 2021 $0.99N/A (N/A)0 .. 20,0000%00:00 (00:00)Snkl StudioSnkl Studio
472 Moi Mei 2 Feb 24, 2021 $9.99N/A (N/A)0 .. 20,0000%00:00 (00:00)FreeAnimals_SoftwareDnovel
473 Black Maou & Rainbow Kingdom Feb 22, 2021 $7.99N/A (N/A)0 .. 20,0000%00:00 (00:00)San Soku SpaceSan Soku Space
474 灭顶之灾—救赎 Feb 19, 2021 $4.99N/A (N/A)100,000 .. 200,0000%00:00 (00:00)NuoMiGame游戏开发工作室, 玖日六叔NuoMiGame游戏开发工作室
475 Black Ido Feb 10, 2021 $0.99N/A (N/A)0 .. 20,0000%00:00 (00:00)Dnovel, FreeAnimals_SoftwareConglomerate 5
476 Gravity Block Feb 9, 2021 $0.99N/A (N/A)0 .. 20,0000%00:00 (00:00)Atthus GamesAtthus Games
477 Wetlands Jan 1, 1995 $6.99N/A (N/A)50,000 .. 100,0000%00:00 (00:00)New World ComputingZiggurat
478 Cat's Menace Feb 4, 2021 $1.99N/A (N/A)50,000 .. 100,0000%00:00 (00:00)CGCFSSCGCFSS
479 Lithoi - Trials of Memory Jan 28, 2021 $2.99N/A (N/A)100,000 .. 200,0000%00:00 (00:00)AnemoessaAnemoessa
480 Ghost in the pool Jan 27, 2021 $4.99N/A (N/A)50,000 .. 100,0000%00:00 (00:00)CASCHA GAMESCASCHA GAMES
481 Two Guys One Cabin Jan 25, 2021 $0.99N/A (N/A)20,000 .. 50,0000%00:00 (00:00)TopSkyGamesTopSkyGames
482 夏日的回忆 Jan 23, 2021 $10.99N/A (N/A)20,000 .. 50,0000%00:00 (00:00)Shao LeiShao Lei
483 CLOSER - anagnorisis Jan 22, 2021 $5.99N/A (N/A)0 .. 20,0000%00:00 (00:00)ELYSIUMELYSIUM, 电钮组
484 Boring in paradise Jan 10, 2021 $0.99N/A (N/A)0 .. 20,0000%00:00 (00:00)Timofei Usikovcd-doma production
485 Inexplicable Deaths In Damipolis: Inner Thoughts Dec 10, 2020 $1.99N/A (N/A)20,000 .. 50,0000%00:00 (00:00)TiesoftBadland Publishing
486 The Message Dec 6, 2020 $14.99N/A (N/A)0 .. 20,0000%00:00 (00:00)Dream GamesDream Games
487 . Dec 2, 2020 $0.99N/A (N/A)0 .. 20,0000%00:00 (00:00)GRCGRC
488 Penny RPG: Shadows of the Lost - A Blood City Tale Dec 1, 2020 $11.99N/A (N/A)20,000 .. 50,0000%00:00 (00:00)OMC GamesOMC Games
489 Empire of Sin Dec 1, 2020 $39.99N/A (N/A)200,000 .. 500,0000%00:00 (00:00)Romero GamesParadox Interactive
490 Cyberpunk SFX Nov 29, 2020 $0.95N/A (N/A)20,000 .. 50,0000%00:00 (00:00)Whale Rock GamesWhale Rock Games
491 Shadow Lost Nov 26, 2020 $29.99N/A (N/A)0 .. 20,0000%00:00 (00:00)Limitcore studioLimitcore studio
492 DEUS EX MACHINA: Episode 1 Nov 24, 2020 $9.99N/A (N/A)50,000 .. 100,0000%00:00 (00:00)Looksten Inc.Looksten Inc.
493 Lighthouse Keeper Nov 22, 2020 $0.99N/A (N/A)100,000 .. 200,0000%00:00 (00:00)Nikita KafMissing Calm
494 Ignatius Nov 19, 2020 $7.99N/A (N/A)20,000 .. 50,0000%00:00 (00:00)Sons of Welder, FM Simple Games StudioSons of Welder, FM Simple Games Studio
495 Agent Klutz Nov 11, 2020 FreeN/A (N/A)20,000 .. 50,0000%00:00 (00:00)notagamestudionotagamestudio
496 Hit Zero: Chronos Nov 11, 2020 $0.99N/A (N/A)100,000 .. 200,0000%00:00 (00:00)ZHANG FANSHEN JIAWEI
497 Silence in the Dark Nov 10, 2020 $0.99N/A (N/A)20,000 .. 50,0000%00:00 (00:00)GrytisGrytis
498 Grey Skies: A War of the Worlds Story Nov 5, 2020 $11.99N/A (N/A)20,000 .. 50,0000%00:00 (00:00)Steel Arts SoftwareSteel Arts Software
499 The Remission of Sins Nov 5, 2020 $11.99N/A (N/A)20,000 .. 50,0000%00:00 (00:00)KaminGamesTsukiakari Studios, KaminGames
500 Choices That Matter: And The Sun Went Out Nov 3, 2020 $5.99N/A (N/A)20,000 .. 50,0000%00:00 (00:00)Tin Man GamesTin Man Games
501 The Schizophrenic Dynasty of Müller Nov 2, 2020 $7.99N/A (N/A)0 .. 20,0000%00:00 (00:00)MutkraktMutkrakt
502 CyberTaxi Oct 30, 2020 $9.99N/A (N/A)20,000 .. 50,0000%00:00 (00:00)Projects from BasementUltimate Games S.A.
503 Cradle of Links Dec 1, 2020 $5.99N/A (N/A)0 .. 20,0000%00:00 (00:00)MEGALODON gamesReloadWorld Games
504 Seeking Revenge Oct 18, 2020 $3.99N/A (N/A)0 .. 20,0000%00:00 (00:00)WaqudooWaqudoo
505 Mystery Hotel - Hidden Object Detective Game Oct 16, 2020 $4.99N/A (N/A)20,000 .. 50,0000%00:00 (00:00)Crisp App StudioCrisp App Studio
506 UNMEMORY Oct 13, 2020 $9.99N/A (N/A)100,000 .. 200,0000%00:00 (00:00)PATRONES & ESCONDITESPATRONES & ESCONDITES
507 Murder by Moonlight - Call of the Wolf Oct 9, 2020 $5.99N/A (N/A)0 .. 20,0000%00:00 (00:00)eFunSoft GamesHH-Games
508 The Square Key Oct 8, 2020 $0.99N/A (N/A)0 .. 20,0000%00:00 (00:00)Dnovel, FreeAnimals_SoftwareConglomerate 5
509 Hadr Oct 5, 2020 $4.99N/A (N/A)0 .. 20,0000%00:00 (00:00)Dominik Konečný, Ateliér DuchůAteliér Duchů
510 Mess Adventures Sep 30, 2020 $2.99N/A (N/A)0 .. 20,0000%00:00 (00:00)Marvelous GamesMarvelous Games
511 Mafia: Definitive Edition Sep 24, 2020 $39.99N/A (N/A)2,000,000 .. 5,000,0001.34%11:54 (08:20)Hangar 132K
512 A Case of the Crabs: Rehash Sep 21, 2020 $0.99N/A (N/A)20,000 .. 50,0000%00:00 (00:00)Pinhead GamesPinhead Games
513 非常魔王(Beelzebub) Sep 18, 2020 $4.99N/A (N/A)50,000 .. 100,0000%00:00 (00:00)王韋RMAsia
514 亡命尸潮惊魂夜 Escape Zombies At Night Sep 6, 2020 $0.99N/A (N/A)0 .. 20,0000%00:00 (00:00)morescore studiomorescore studio
515 Dimetrosaur 2 Sep 2, 2020 $0.99N/A (N/A)0 .. 20,0000%00:00 (00:00)Grade 9 GamesGrade 9 Games
516 Zombies Must Die Sep 1, 2020 $4.99N/A (N/A)20,000 .. 50,0000%00:00 (00:00)Funny Face GamesFunny Face Games
517 For the People Aug 13, 2020 $16.99N/A (N/A)50,000 .. 100,0000%00:00 (00:00)Brezg Studio101XP
518 《Curse of disaster spirit : Anecdotes of mansion》 Aug 11, 2020 $7.99N/A (N/A)0 .. 20,0000%00:00 (00:00)Kaili GongKaili Gong
519 LIBERATED Jul 30, 2020 $19.99N/A (N/A)200,000 .. 500,0000%00:00 (00:00)Atomic Wolf, L.INCWalkabout, L.INC
520 Naught Jul 30, 2020 $19.99N/A (N/A)0 .. 20,0000%00:00 (00:00)WildSphereWildSphere
521 Silenthead: Ducks hunt Jul 28, 2021 $1.29N/A (N/A)0 .. 20,0000%00:00 (00:00)Scream CORPScream CORP
522 Insulated at the bottom Jul 22, 2020 $3.99N/A (N/A)20,000 .. 50,0000%00:00 (00:00)WaqudooWaqudoo
523 Whiskey.Mafia. Leo's Family Jun 15, 2020 $2.99N/A (N/A)20,000 .. 50,0000%00:00 (00:00)FastGame, VICTORIA GamesFastGame
524 Edge of Reality Jul 16, 2020 $0.99N/A (N/A)0 .. 20,0000%00:00 (00:00)Moon EclipseConglomerate 5
525 Brain Marmelade Oct 18, 2018 $2.99N/A (N/A)0 .. 20,0000%00:00 (00:00)Amaury Dangréau, Arnaud MagousAmaury Hyde, Plug In Digital
526 The Rig: A Starmap to Murder Jun 26, 2020 $14.99N/A (N/A)0 .. 20,0000%00:00 (00:00)Sunset DivisionSunset Division
527 Lithium City Jun 15, 2020 $7.99N/A (N/A)0 .. 20,0000%00:00 (00:00)Nico TuasonNico Tuason
528 NewCity Jun 12, 2020 $9.99N/A (N/A)20,000 .. 50,0000%00:00 (00:00)Lone Pine Games, LLCLone Pine Games, LLC
529 Depanneur Nocturne May 26, 2020 $4.99N/A (N/A)0 .. 20,0000%00:00 (00:00)KO_OPKO_OP
530 Cyber Ops May 21, 2020 $14.99N/A (N/A)20,000 .. 50,0000%00:00 (00:00)Octeto StudiosGames Operators
531 Tales From Off-Peak City Vol. 1 May 15, 2020 $9.99N/A (N/A)20,000 .. 50,0000%00:00 (00:00)Cosmo DCosmo D Studios LLC
532 The Flower Collectors Apr 21, 2020 $14.99N/A (N/A)0 .. 20,0000%00:00 (00:00)Mi'pu'mi Games GmbHMi'pu'mi Games GmbH
533 Bat of Dead Apr 17, 2020 $0.99N/A (N/A)0 .. 20,0000%00:00 (00:00)Collapse of the GrotesqueCollapse of the Grotesque
534 The Casebook of Arkady Smith Apr 14, 2020 $4.99N/A (N/A)0 .. 20,0000%00:00 (00:00)Wobbly ToothWobbly Tooth
535 Mr. Fast Apr 1, 2020 $0.99N/A (N/A)0 .. 20,0000%00:00 (00:00)ZHANG FANSHEN JIAWEI
536 Nick Bounty and the Dame with the Blue Chewed Shoe Mar 31, 2020 $4.99N/A (N/A)0 .. 20,0000%00:00 (00:00)Pinhead GamesPinhead Games
537 Gravity Escape From The Maze Mar 19, 2020 $0.99N/A (N/A)0 .. 20,0000%00:00 (00:00)SBM GamesSBM Games
538 Kamile: The Fall Mar 16, 2020 $4.99N/A (N/A)0 .. 20,0000%00:00 (00:00)Bartosh PolonskiGluk Media
539 Lost In Ferry VR Mar 2, 2020 $9.99N/A (N/A)0 .. 20,0000%00:00 (00:00)LZR GAMESLZR GAMES
540 Arrest of a stone Buddha Feb 27, 2020 $14.99N/A (N/A)20,000 .. 50,0000%00:00 (00:00)yeoyeo
541 Femida Feb 25, 2020 $9.99N/A (N/A)0 .. 20,0000%00:00 (00:00)Art InteractiveRoman Loznevoy
542 Roman's Christmas / 罗曼圣诞探案集 Feb 19, 2020 $10.99N/A (N/A)50,000 .. 100,0000%00:00 (00:00)SelfCrop StudioFawnGame , Milk Bottle Studio
543 Grimm & Tonic: Aperitif Jan 31, 2020 $4.99N/A (N/A)0 .. 20,0000%00:00 (00:00)SpritewrenchSpritewrench
544 Grayland Jan 15, 2020 $4.99N/A (N/A)0 .. 20,0000%00:00 (00:00)1DER Entertainment1DER Entertainment
545 Street Heat Dec 12, 2019 $7.99N/A (N/A)0 .. 20,0000%00:00 (00:00)Astalo GamesPQube
546 DIVINATION Dec 12, 2019 $1.99N/A (N/A)0 .. 20,0000%00:00 (00:00)MojikenMojiken
547 Interrogation: You will be deceived Dec 5, 2019 $12.99N/A (N/A)20,000 .. 50,0000%00:00 (00:00)Critique GamingAssemble Entertainment
548 Detective Solitaire Inspector Magic Nov 24, 2019 $4.99N/A (N/A)0 .. 20,0000%00:00 (00:00)Somer Games8floor
549 Gangsters 1920 Nov 7, 2019 $2.99N/A (N/A)20,000 .. 50,0000%00:00 (00:00)Sunlight GamesSunlight Games
550 A Zone Nov 1, 2019 $0.99N/A (N/A)0 .. 20,0000%00:00 (00:00)LUCKY STAR STUDIOLUCKY STAR STUDIO
551 The Lighthouse Oct 31, 2019 $24.99N/A (N/A)20,000 .. 50,0000%00:00 (00:00)Shadow Knights StudioShadow Knights Studio
552 Dark Zone Defense Oct 30, 2019 $1.99N/A (N/A)20,000 .. 50,0000%00:00 (00:00)Supernature StudioSupernature Studio
553 Tangle Tower Oct 22, 2019 $19.99N/A (N/A)200,000 .. 500,00012.5%00:34 (00:11)SFB GamesSFB Games
554 Detective Solitaire. Butler Story Oct 15, 2019 $4.99N/A (N/A)0 .. 20,0000%00:00 (00:00)Somer Games8floor
555 Crowd Simulator Sep 23, 2019 $0.99N/A (N/A)100,000 .. 200,0000%00:00 (00:00)ZHANG FAN, SHEN JIAWEISHEN JIAWEI
556 Misadventures of Laura Silver Aug 14, 2019 $7.99N/A (N/A)50,000 .. 100,0000%00:00 (00:00)Studio Attic SaltStudio Attic Salt
557 告死天使之言 Death angel Aug 10, 2019 $0.99N/A (N/A)0 .. 20,0000%00:00 (00:00)我妻寒十我妻寒十
558 Sanitarium Rush Aug 7, 2019 $0.99N/A (N/A)0 .. 20,0000%00:00 (00:00)SplendortekSplendortek
559 Dry Drowning Aug 2, 2019 $19.99N/A (N/A)100,000 .. 200,0000%00:00 (00:00)Studio V, VLGLeonardo Interactive, WhisperGames
560 Bear With Me: The Lost Robots Jul 31, 2019 $4.99N/A (N/A)20,000 .. 50,0000%00:00 (00:00)Exordium GamesMaximum Entertainment
561 TTV3 Jul 18, 2019 $0.27N/A (N/A)50,000 .. 100,0000%00:00 (00:00)Walter MachadoWalter Machado
562 Night Call Jul 17, 2019 $14.99N/A (N/A)50,000 .. 100,0000%00:00 (00:00)Monkey Moon, BlackMuffinRaw Fury
563 Drawn Down Aug 31, 2018 $2.99N/A (N/A)0 .. 20,0000%00:00 (00:00)Studio HazyStudio Hazy
564 Dollhouse May 24, 2019 $14.99N/A (N/A)0 .. 20,0000%00:00 (00:00)Creazn StudioSOEDESCO
565 Fade Out May 21, 2019 N/AN/A (N/A)50,000 .. 100,0000%00:00 (00:00)PlaySysPlaySys
566 Tales of the Neon Sea Apr 29, 2019 $16.99N/A (N/A)500,000 .. 1,000,0000%00:00 (00:00)YiTi GamesThermite Games
567 Room of Pandora Apr 24, 2019 $0.99N/A (N/A)20,000 .. 50,0000%00:00 (00:00)SHEN JIAWEI, ZHANG FANSHEN JIAWEI, ZHANG FAN
568 Curious Cases Apr 4, 2019 $6.99N/A (N/A)100,000 .. 200,0000%00:00 (00:00)OnSkull GamesOnSkull Games
569 7th Sector Mar 5, 2019 $12.99N/A (N/A)100,000 .. 200,0000%00:00 (00:00)Носков СергейНосков Сергей
570 The Dame Was Loaded Jan 28, 2019 $6.99N/A (N/A)20,000 .. 50,0000%00:00 (00:00)Beam SoftwareZiggurat
571 消灭魔王军 Destroy the Demon Army Jan 11, 2019 $0.99N/A (N/A)50,000 .. 100,0000%00:00 (00:00)幻想工房幻想工房
572 Seven Chambers Dec 4, 2018 $9.99N/A (N/A)0 .. 20,0000%00:00 (00:00)Three Headed Eagle, Cateia Games, Goldfinch StudiosCateia Games
573 NeonCode Nov 22, 2018 $0.99N/A (N/A)20,000 .. 50,0000%00:00 (00:00)FubenalvoFubenalvo
574 Tango: The Adventure Game Nov 16, 2018 $5.99N/A (N/A)0 .. 20,0000%00:00 (00:00)Gualicho GamesInca Games
575 The Cabinets of Doctor Arcana Oct 6, 2018 $9.99N/A (N/A)0 .. 20,0000%00:00 (00:00)Monolith Graphics, The HideoutMonolith Graphics, The Hideout
576 Apparition Oct 2018 $9.99N/A (N/A)0 .. 20,0000%00:00 (00:00)MrCiastkuNo Gravity Games
577 Adventures in the Light & Dark Jul 24, 2018 $0.99N/A (N/A)20,000 .. 50,0000%00:00 (00:00)Protoria StudiosProtoria Studios
578 Ark Noir Jul 12, 2018 $9.99N/A (N/A)0 .. 20,0000%00:00 (00:00)Amamori LabPLAYISM
579 Shining Hotel: Lost in Nowhere Jun 5, 2018 N/AN/A (N/A)0 .. 20,0000%00:00 (00:00)Trapped in DespairTrapped in Despair
580 Tell Me Everything May 29, 2018 $0.99N/A (N/A)50,000 .. 100,0000%00:00 (00:00)LizardFactoryLizardFactory
581 Lords of Strife May 22, 2018 $4.99N/A (N/A)0 .. 20,0000%00:00 (00:00)Revolutionary InteractiveRevolutionary Interactive
582 The Mercury Man May 20, 2018 $3.99N/A (N/A)100,000 .. 200,0000%00:00 (00:00)MehsoftMehsoft
583 FRAMED Collection May 17, 2018 $9.99N/A (N/A)200,000 .. 500,0000%00:00 (00:00)Loveshack EntertainmentFellow Traveller
584 Dark Grim Mariupolis Mar 20, 2018 $4.99N/A (N/A)20,000 .. 50,0000%00:00 (00:00)Team MariupolisXitilon
585 Beyond the Invisible: Darkness Came Feb 21, 2018 $9.99N/A (N/A)20,000 .. 50,0000%00:00 (00:00)Graphium StudioDenda Games
586 Lonely Trip Feb 5, 2018 $1.99N/A (N/A)20,000 .. 50,0000%00:00 (00:00)Fish Chain GamesFish Chain Games
587 Noir Chronicles: City of Crime Jan 25, 2018 $14.99N/A (N/A)20,000 .. 50,0000%00:00 (00:00)Brave Giant LTDArtifex Mundi
588 Man of Honor Dec 7, 2017 $9.99N/A (N/A)20,000 .. 50,0000%00:00 (00:00)SimbryoSimbryo
589 The Ghosts of Hackney Mills Nov 20, 2017 $3.99N/A (N/A)50,000 .. 100,0000%00:00 (00:00)Sapphire Dragon ProductionsSapphire Dragon Productions
590 Arcade Moonlander Oct 25, 2017 $0.99N/A (N/A)100,000 .. 200,0000.72%00:01 (00:00)Daniel Paul GriffinBack Of Nowhere Studios
591 Metropolis: Lux Obscura Oct 11, 2017 $7.99N/A (N/A)20,000 .. 50,0000%00:00 (00:00)Ktulhu SolutionsKtulhu Solutions
592 Rainyday Oct 6, 2017 $3.99N/A (N/A)0 .. 20,0000%00:00 (00:00)Kerkko RasilainenKerkko Rasilainen
593 Dead By Murder Oct 3, 2017 $3.99N/A (N/A)0 .. 20,0000%00:00 (00:00)b movie gamesStrategy First
594 TTV2 Sep 11, 2017 $0.27N/A (N/A)100,000 .. 200,0000%00:00 (00:00)Walter MachadoWalter Machado
595 Beyond the Invisible: Evening Jun 22, 2017 $7.99N/A (N/A)20,000 .. 50,0000%00:00 (00:00)Graphium StudioGraphium Studio
596 Murder In Tehran's Alleys 1933 Jun 8, 2017 $9.99N/A (N/A)0 .. 20,0000%00:00 (00:00)RSK EntertainmentStrategy First
597 Abode Nov 1, 2016 $9.99N/A (N/A)50,000 .. 100,0000%00:00 (00:00)OverflowOverflow
598 Renoir Nov 16, 2016 $9.99N/A (N/A)0 .. 20,0000%00:00 (00:00)Black Wing FoundationFulqrum Publishing
599 Silhouette: Chapter One Nov 13, 2016 N/AN/A (N/A)0 .. 20,0000%00:00 (00:00)Apeirogon GamesApeirogon Games
600 Daily Chthonicle: Editor's Edition Sep 30, 2016 $3.99N/A (N/A)200,000 .. 500,0000%00:00 (00:00)Sinister SystemsSometimes You
601 Gabriel Knight: Sins of the Father Dec 17, 1993 $5.99N/A (N/A)20,000 .. 50,0000%00:00 (00:00)Sierra On-LineActivision
602 Door To Door Aug 2, 2016 $4.99N/A (N/A)20,000 .. 50,0000%00:00 (00:00)CD JonesCD Jones
603 This Is the Police Aug 2, 2016 $14.99N/A (N/A)500,000 .. 1,000,0000%00:00 (00:00)Weappy StudioTHQ Nordic
604 Batman - The Telltale Series Aug 2, 2016 $14.99N/A (N/A)500,000 .. 1,000,0000%00:00 (00:00)TelltaleTelltale
605 System Crash Mar 10, 2016 $14.99N/A (N/A)20,000 .. 50,0000%00:00 (00:00)Rogue Moon StudiosRogue Moon Studios
Overview

Noir

Games with this tag: 605
Average userscore: N/A%
Average metascore: 75.89%
Average playtime: 02:47
Total copies owned: 42,641,000
Average price: $9.17
Help

Owners: Estimated number of people owning this game. The number might be way too small for new releases and sometimes way too big for games that had free weekend event recently. Read more on About page.

Playtime: Average hours played in total per person that have actually launched this game since March 2009. This time is calculated for the whole lifetime, not for the particular year.

Average score: Average users and metacritic score for all games with this score assigned.

Average playtime: Average lifetime playtime for all games where this data is available.

Games in this genre: Self-explaining - number of games with this tag. Only inculdes games with sales data available.

Total copies owned: Refers to total copies of games with this tag acquired by users for the lifetime. Includes copies sold, downloaded for free and given out.

This number might be too small for recently released games or too big for games that had a free weekend in the last couple of months.

Graphs

Login required.

Please register or log in to see this information.

Login required.

Please register or log in to see this information.